<?xml version="1.0" encoding="utf-8"?>
<gpx xmlns:xsi="http://www.w3.org/2001/XMLSchema-instance" xmlns:xsd="http://www.w3.org/2001/XMLSchema" version="1.1" creator="Shapelink.com" xmlns="http://www.topografix.com/GPX/1/1" xmlns:gpxtpx="http://www.garmin.com/xmlschemas/TrackPointExtension/v1">
  <metadata>
    <name>Sykling 44.14 km, 2012-04-28</name>
    <desc></desc>
    <author><name>Mikael Blom</name></author> 
    <time>2012-04-28T04:31:58Z</time>
  </metadata>
  <trk>
    <name>Sykling 44.14 km, 2012-04-28</name>
    <trkseg>
      <trkpt lat="59.9763764" lon="17.7396572">
        <ele>32.8223</ele>
        <time>2012-04-28T04:31:58Z</time>
      </trkpt>
      <trkpt lat="59.9761854" lon="17.7403288">
        <ele>32.8223</ele>
        <time>2012-04-28T04:32:03Z</time>
      </trkpt>
      <trkpt lat="59.9758886" lon="17.7412208">
        <ele>31.8607</ele>
        <time>2012-04-28T04:32:12Z</time>
      </trkpt>
      <trkpt lat="59.9756978" lon="17.7419795">
        <ele>31.8607</ele>
        <time>2012-04-28T04:32:20Z</time>
      </trkpt>
      <trkpt lat="59.9754742" lon="17.742823">
        <ele>32.3416</ele>
        <time>2012-04-28T04:32:29Z</time>
      </trkpt>
      <trkpt lat="59.9752768" lon="17.7437066">
        <ele>33.3029</ele>
        <time>2012-04-28T04:32:38Z</time>
      </trkpt>
      <trkpt lat="59.975085" lon="17.7446417">
        <ele>34.2642</ele>
        <time>2012-04-28T04:32:47Z</time>
      </trkpt>
      <trkpt lat="59.9748372" lon="17.7453915">
        <ele>35.7061</ele>
        <time>2012-04-28T04:32:55Z</time>
      </trkpt>
      <trkpt lat="59.9745735" lon="17.7459727">
        <ele>37.1481</ele>
        <time>2012-04-28T04:33:03Z</time>
      </trkpt>
      <trkpt lat="59.9743251" lon="17.7463645">
        <ele>37.6287</ele>
        <time>2012-04-28T04:33:09Z</time>
      </trkpt>
      <trkpt lat="59.9738065" lon="17.7470468">
        <ele>35.7061</ele>
        <time>2012-04-28T04:33:20Z</time>
      </trkpt>
      <trkpt lat="59.9733463" lon="17.7475218">
        <ele>33.3029</ele>
        <time>2012-04-28T04:33:29Z</time>
      </trkpt>
      <trkpt lat="59.9729142" lon="17.7480476">
        <ele>32.8223</ele>
        <time>2012-04-28T04:33:37Z</time>
      </trkpt>
      <trkpt lat="59.9726661" lon="17.7485459">
        <ele>33.3029</ele>
        <time>2012-04-28T04:33:43Z</time>
      </trkpt>
      <trkpt lat="59.9723672" lon="17.7491826">
        <ele>31.8607</ele>
        <time>2012-04-28T04:33:51Z</time>
      </trkpt>
      <trkpt lat="59.9720951" lon="17.7498657">
        <ele>29.4575</ele>
        <time>2012-04-28T04:33:59Z</time>
      </trkpt>
      <trkpt lat="59.9718357" lon="17.75042">
        <ele>28.4962</ele>
        <time>2012-04-28T04:34:05Z</time>
      </trkpt>
      <trkpt lat="59.9714486" lon="17.7510348">
        <ele>28.4962</ele>
        <time>2012-04-28T04:34:12Z</time>
      </trkpt>
      <trkpt lat="59.9708308" lon="17.7517871">
        <ele>29.4575</ele>
        <time>2012-04-28T04:34:22Z</time>
      </trkpt>
      <trkpt lat="59.9704279" lon="17.7525527">
        <ele>29.9381</ele>
        <time>2012-04-28T04:34:30Z</time>
      </trkpt>
      <trkpt lat="59.9701269" lon="17.7534224">
        <ele>30.4188</ele>
        <time>2012-04-28T04:34:38Z</time>
      </trkpt>
      <trkpt lat="59.9697922" lon="17.7541988">
        <ele>31.3801</ele>
        <time>2012-04-28T04:34:46Z</time>
      </trkpt>
      <trkpt lat="59.9694777" lon="17.7548584">
        <ele>30.8995</ele>
        <time>2012-04-28T04:34:54Z</time>
      </trkpt>
      <trkpt lat="59.9691132" lon="17.7556265">
        <ele>29.9381</ele>
        <time>2012-04-28T04:35:03Z</time>
      </trkpt>
      <trkpt lat="59.9687375" lon="17.7563958">
        <ele>30.8995</ele>
        <time>2012-04-28T04:35:13Z</time>
      </trkpt>
      <trkpt lat="59.9684013" lon="17.7569443">
        <ele>30.8995</ele>
        <time>2012-04-28T04:35:21Z</time>
      </trkpt>
      <trkpt lat="59.9679991" lon="17.7574997">
        <ele>29.4575</ele>
        <time>2012-04-28T04:35:29Z</time>
      </trkpt>
      <trkpt lat="59.9674607" lon="17.7581094">
        <ele>25.6123</ele>
        <time>2012-04-28T04:35:38Z</time>
      </trkpt>
      <trkpt lat="59.9670045" lon="17.7585223">
        <ele>23.6896</ele>
        <time>2012-04-28T04:35:46Z</time>
      </trkpt>
      <trkpt lat="59.9665011" lon="17.7590071">
        <ele>22.7283</ele>
        <time>2012-04-28T04:35:55Z</time>
      </trkpt>
      <trkpt lat="59.9661086" lon="17.7596375">
        <ele>22.2476</ele>
        <time>2012-04-28T04:36:03Z</time>
      </trkpt>
      <trkpt lat="59.9656843" lon="17.7603824">
        <ele>22.2476</ele>
        <time>2012-04-28T04:36:12Z</time>
      </trkpt>
      <trkpt lat="59.9653874" lon="17.7608909">
        <ele>22.2476</ele>
        <time>2012-04-28T04:36:19Z</time>
      </trkpt>
      <trkpt lat="59.9651747" lon="17.7614317">
        <ele>22.7283</ele>
        <time>2012-04-28T04:36:25Z</time>
      </trkpt>
      <trkpt lat="59.964854" lon="17.7622615">
        <ele>23.6896</ele>
        <time>2012-04-28T04:36:34Z</time>
      </trkpt>
      <trkpt lat="59.9645668" lon="17.7631969">
        <ele>24.1703</ele>
        <time>2012-04-28T04:36:43Z</time>
      </trkpt>
      <trkpt lat="59.9642671" lon="17.7643975">
        <ele>25.1317</ele>
        <time>2012-04-28T04:36:54Z</time>
      </trkpt>
      <trkpt lat="59.9640893" lon="17.7652287">
        <ele>25.1317</ele>
        <time>2012-04-28T04:37:02Z</time>
      </trkpt>
      <trkpt lat="59.9640602" lon="17.7656182">
        <ele>25.1317</ele>
        <time>2012-04-28T04:37:07Z</time>
      </trkpt>
      <trkpt lat="59.9640563" lon="17.7658218">
        <ele>25.1317</ele>
        <time>2012-04-28T04:37:10Z</time>
      </trkpt>
      <trkpt lat="59.9640683" lon="17.7663091">
        <ele>23.6896</ele>
        <time>2012-04-28T04:37:18Z</time>
      </trkpt>
      <trkpt lat="59.9640649" lon="17.7668321">
        <ele>23.209</ele>
        <time>2012-04-28T04:37:25Z</time>
      </trkpt>
      <trkpt lat="59.9640039" lon="17.7673823">
        <ele>25.6123</ele>
        <time>2012-04-28T04:37:31Z</time>
      </trkpt>
      <trkpt lat="59.9638568" lon="17.768064">
        <ele>27.5349</ele>
        <time>2012-04-28T04:37:38Z</time>
      </trkpt>
      <trkpt lat="59.9636416" lon="17.7688436">
        <ele>26.5736</ele>
        <time>2012-04-28T04:37:45Z</time>
      </trkpt>
      <trkpt lat="59.9634714" lon="17.7694621">
        <ele>28.0155</ele>
        <time>2012-04-28T04:37:51Z</time>
      </trkpt>
      <trkpt lat="59.9634256" lon="17.7700029">
        <ele>28.9769</ele>
        <time>2012-04-28T04:37:56Z</time>
      </trkpt>
      <trkpt lat="59.9634885" lon="17.7708275">
        <ele>27.0543</ele>
        <time>2012-04-28T04:38:03Z</time>
      </trkpt>
      <trkpt lat="59.9636614" lon="17.7716179">
        <ele>26.5736</ele>
        <time>2012-04-28T04:38:09Z</time>
      </trkpt>
      <trkpt lat="59.9638618" lon="17.7726272">
        <ele>25.6123</ele>
        <time>2012-04-28T04:38:16Z</time>
      </trkpt>
      <trkpt lat="59.9638754" lon="17.7727831">
        <ele>25.6123</ele>
        <time>2012-04-28T04:38:17Z</time>
      </trkpt>
      <trkpt lat="59.9638305" lon="17.7735052">
        <ele>26.0929</ele>
        <time>2012-04-28T04:38:22Z</time>
      </trkpt>
      <trkpt lat="59.9636781" lon="17.7743998">
        <ele>26.5736</ele>
        <time>2012-04-28T04:38:29Z</time>
      </trkpt>
      <trkpt lat="59.9635342" lon="17.7751531">
        <ele>26.5736</ele>
        <time>2012-04-28T04:38:35Z</time>
      </trkpt>
      <trkpt lat="59.9632852" lon="17.7759098">
        <ele>28.4962</ele>
        <time>2012-04-28T04:38:42Z</time>
      </trkpt>
      <trkpt lat="59.963003" lon="17.7768234">
        <ele>28.9769</ele>
        <time>2012-04-28T04:38:51Z</time>
      </trkpt>
      <trkpt lat="59.9627435" lon="17.7774425">
        <ele>28.9769</ele>
        <time>2012-04-28T04:38:57Z</time>
      </trkpt>
      <trkpt lat="59.9622529" lon="17.7784911">
        <ele>29.9381</ele>
        <time>2012-04-28T04:39:08Z</time>
      </trkpt>
      <trkpt lat="59.9618856" lon="17.7793196">
        <ele>30.8995</ele>
        <time>2012-04-28T04:39:17Z</time>
      </trkpt>
      <trkpt lat="59.9615034" lon="17.780201">
        <ele>30.8995</ele>
        <time>2012-04-28T04:39:27Z</time>
      </trkpt>
      <trkpt lat="59.9611812" lon="17.7807965">
        <ele>31.3801</ele>
        <time>2012-04-28T04:39:34Z</time>
      </trkpt>
      <trkpt lat="59.9606757" lon="17.7817111">
        <ele>31.8607</ele>
        <time>2012-04-28T04:39:45Z</time>
      </trkpt>
      <trkpt lat="59.9604175" lon="17.7823282">
        <ele>32.3416</ele>
        <time>2012-04-28T04:39:52Z</time>
      </trkpt>
      <trkpt lat="59.9601912" lon="17.7830355">
        <ele>32.3416</ele>
        <time>2012-04-28T04:40:00Z</time>
      </trkpt>
      <trkpt lat="59.9599313" lon="17.7838006">
        <ele>31.3801</ele>
        <time>2012-04-28T04:40:08Z</time>
      </trkpt>
      <trkpt lat="59.959633" lon="17.7843963">
        <ele>31.3801</ele>
        <time>2012-04-28T04:40:15Z</time>
      </trkpt>
      <trkpt lat="59.9591739" lon="17.785065">
        <ele>30.8995</ele>
        <time>2012-04-28T04:40:24Z</time>
      </trkpt>
      <trkpt lat="59.9588036" lon="17.7853752">
        <ele>30.8995</ele>
        <time>2012-04-28T04:40:30Z</time>
      </trkpt>
      <trkpt lat="59.9584539" lon="17.7857153">
        <ele>29.9381</ele>
        <time>2012-04-28T04:40:36Z</time>
      </trkpt>
      <trkpt lat="59.9579255" lon="17.7863357">
        <ele>29.4575</ele>
        <time>2012-04-28T04:40:45Z</time>
      </trkpt>
      <trkpt lat="59.9578177" lon="17.7864891">
        <ele>29.9381</ele>
        <time>2012-04-28T04:40:47Z</time>
      </trkpt>
      <trkpt lat="59.9576048" lon="17.7870662">
        <ele>30.8995</ele>
        <time>2012-04-28T04:40:53Z</time>
      </trkpt>
      <trkpt lat="59.9574293" lon="17.7878426">
        <ele>28.9769</ele>
        <time>2012-04-28T04:41:00Z</time>
      </trkpt>
      <trkpt lat="59.9571828" lon="17.7886804">
        <ele>28.4962</ele>
        <time>2012-04-28T04:41:08Z</time>
      </trkpt>
      <trkpt lat="59.9570973" lon="17.7888765">
        <ele>28.4962</ele>
        <time>2012-04-28T04:41:10Z</time>
      </trkpt>
      <trkpt lat="59.9567782" lon="17.7893424">
        <ele>28.9769</ele>
        <time>2012-04-28T04:41:16Z</time>
      </trkpt>
      <trkpt lat="59.9566772" lon="17.7894868">
        <ele>28.9769</ele>
        <time>2012-04-28T04:41:18Z</time>
      </trkpt>
      <trkpt lat="59.9565533" lon="17.7898712">
        <ele>29.4575</ele>
        <time>2012-04-28T04:41:22Z</time>
      </trkpt>
      <trkpt lat="59.9565642" lon="17.7902239">
        <ele>28.9769</ele>
        <time>2012-04-28T04:41:25Z</time>
      </trkpt>
      <trkpt lat="59.9565845" lon="17.7903347">
        <ele>28.9769</ele>
        <time>2012-04-28T04:41:26Z</time>
      </trkpt>
      <trkpt lat="59.9567295" lon="17.7911261">
        <ele>29.9381</ele>
        <time>2012-04-28T04:41:34Z</time>
      </trkpt>
      <trkpt lat="59.9567114" lon="17.7915633">
        <ele>29.4575</ele>
        <time>2012-04-28T04:41:38Z</time>
      </trkpt>
      <trkpt lat="59.9565057" lon="17.7927984">
        <ele>29.9381</ele>
        <time>2012-04-28T04:41:49Z</time>
      </trkpt>
      <trkpt lat="59.956273" lon="17.7939074">
        <ele>30.4188</ele>
        <time>2012-04-28T04:41:58Z</time>
      </trkpt>
      <trkpt lat="59.9559603" lon="17.7952289">
        <ele>30.4188</ele>
        <time>2012-04-28T04:42:08Z</time>
      </trkpt>
      <trkpt lat="59.9557386" lon="17.7964349">
        <ele>29.4575</ele>
        <time>2012-04-28T04:42:17Z</time>
      </trkpt>
      <trkpt lat="59.955504" lon="17.7974083">
        <ele>29.9381</ele>
        <time>2012-04-28T04:42:25Z</time>
      </trkpt>
      <trkpt lat="59.9551879" lon="17.7984236">
        <ele>31.3801</ele>
        <time>2012-04-28T04:42:35Z</time>
      </trkpt>
      <trkpt lat="59.9549278" lon="17.7989706">
        <ele>32.3416</ele>
        <time>2012-04-28T04:42:42Z</time>
      </trkpt>
      <trkpt lat="59.9546227" lon="17.7995584">
        <ele>30.8995</ele>
        <time>2012-04-28T04:42:49Z</time>
      </trkpt>
      <trkpt lat="59.9543285" lon="17.8002438">
        <ele>31.3801</ele>
        <time>2012-04-28T04:42:56Z</time>
      </trkpt>
      <trkpt lat="59.9540325" lon="17.800956">
        <ele>30.4188</ele>
        <time>2012-04-28T04:43:04Z</time>
      </trkpt>
      <trkpt lat="59.9537857" lon="17.8016019">
        <ele>29.9381</ele>
        <time>2012-04-28T04:43:12Z</time>
      </trkpt>
      <trkpt lat="59.9536524" lon="17.8020802">
        <ele>29.4575</ele>
        <time>2012-04-28T04:43:18Z</time>
      </trkpt>
      <trkpt lat="59.9535251" lon="17.8027363">
        <ele>29.9381</ele>
        <time>2012-04-28T04:43:26Z</time>
      </trkpt>
      <trkpt lat="59.9533992" lon="17.8032237">
        <ele>29.9381</ele>
        <time>2012-04-28T04:43:32Z</time>
      </trkpt>
      <trkpt lat="59.9531925" lon="17.8037422">
        <ele>29.4575</ele>
        <time>2012-04-28T04:43:38Z</time>
      </trkpt>
      <trkpt lat="59.9529419" lon="17.8042935">
        <ele>27.0543</ele>
        <time>2012-04-28T04:43:44Z</time>
      </trkpt>
      <trkpt lat="59.9528026" lon="17.8049425">
        <ele>27.5349</ele>
        <time>2012-04-28T04:43:49Z</time>
      </trkpt>
      <trkpt lat="59.9526771" lon="17.8059905">
        <ele>27.5349</ele>
        <time>2012-04-28T04:43:57Z</time>
      </trkpt>
      <trkpt lat="59.9525175" lon="17.8067721">
        <ele>27.0543</ele>
        <time>2012-04-28T04:44:03Z</time>
      </trkpt>
      <trkpt lat="59.9522196" lon="17.8079076">
        <ele>27.5349</ele>
        <time>2012-04-28T04:44:11Z</time>
      </trkpt>
      <trkpt lat="59.9518374" lon="17.8093378">
        <ele>27.5349</ele>
        <time>2012-04-28T04:44:21Z</time>
      </trkpt>
      <trkpt lat="59.9516012" lon="17.810249">
        <ele>28.0155</ele>
        <time>2012-04-28T04:44:28Z</time>
      </trkpt>
      <trkpt lat="59.9514039" lon="17.8112949">
        <ele>28.0155</ele>
        <time>2012-04-28T04:44:36Z</time>
      </trkpt>
      <trkpt lat="59.9513211" lon="17.812293">
        <ele>27.5349</ele>
        <time>2012-04-28T04:44:43Z</time>
      </trkpt>
      <trkpt lat="59.9513039" lon="17.8138317">
        <ele>26.5736</ele>
        <time>2012-04-28T04:44:53Z</time>
      </trkpt>
      <trkpt lat="59.9512878" lon="17.8152298">
        <ele>25.6123</ele>
        <time>2012-04-28T04:45:02Z</time>
      </trkpt>
      <trkpt lat="59.9512142" lon="17.8164518">
        <ele>25.1317</ele>
        <time>2012-04-28T04:45:10Z</time>
      </trkpt>
      <trkpt lat="59.9510868" lon="17.8177477">
        <ele>26.0929</ele>
        <time>2012-04-28T04:45:19Z</time>
      </trkpt>
      <trkpt lat="59.9509723" lon="17.8189383">
        <ele>26.0929</ele>
        <time>2012-04-28T04:45:28Z</time>
      </trkpt>
      <trkpt lat="59.950948" lon="17.8199178">
        <ele>25.1317</ele>
        <time>2012-04-28T04:45:35Z</time>
      </trkpt>
      <trkpt lat="59.9508823" lon="17.8210818">
        <ele>24.651</ele>
        <time>2012-04-28T04:45:43Z</time>
      </trkpt>
      <trkpt lat="59.9507526" lon="17.8223561">
        <ele>24.651</ele>
        <time>2012-04-28T04:45:52Z</time>
      </trkpt>
      <trkpt lat="59.9506237" lon="17.8235827">
        <ele>24.651</ele>
        <time>2012-04-28T04:46:01Z</time>
      </trkpt>
      <trkpt lat="59.9504506" lon="17.824515">
        <ele>24.1703</ele>
        <time>2012-04-28T04:46:08Z</time>
      </trkpt>
      <trkpt lat="59.9501518" lon="17.8258494">
        <ele>23.6896</ele>
        <time>2012-04-28T04:46:18Z</time>
      </trkpt>
      <trkpt lat="59.950028" lon="17.8266173">
        <ele>23.6896</ele>
        <time>2012-04-28T04:46:24Z</time>
      </trkpt>
      <trkpt lat="59.9499902" lon="17.8275331">
        <ele>23.6896</ele>
        <time>2012-04-28T04:46:31Z</time>
      </trkpt>
      <trkpt lat="59.9500107" lon="17.8288297">
        <ele>23.6896</ele>
        <time>2012-04-28T04:46:41Z</time>
      </trkpt>
      <trkpt lat="59.949983" lon="17.8294505">
        <ele>24.1703</ele>
        <time>2012-04-28T04:46:46Z</time>
      </trkpt>
      <trkpt lat="59.9498308" lon="17.8297456">
        <ele>24.1703</ele>
        <time>2012-04-28T04:46:50Z</time>
      </trkpt>
      <trkpt lat="59.9497316" lon="17.8296636">
        <ele>23.6896</ele>
        <time>2012-04-28T04:46:52Z</time>
      </trkpt>
      <trkpt lat="59.9492853" lon="17.8289997">
        <ele>22.7283</ele>
        <time>2012-04-28T04:47:01Z</time>
      </trkpt>
      <trkpt lat="59.9487818" lon="17.8284262">
        <ele>23.6896</ele>
        <time>2012-04-28T04:47:10Z</time>
      </trkpt>
      <trkpt lat="59.948333" lon="17.8279501">
        <ele>24.651</ele>
        <time>2012-04-28T04:47:19Z</time>
      </trkpt>
      <trkpt lat="59.9478166" lon="17.8274125">
        <ele>24.1703</ele>
        <time>2012-04-28T04:47:29Z</time>
      </trkpt>
      <trkpt lat="59.947119" lon="17.8266923">
        <ele>25.1317</ele>
        <time>2012-04-28T04:47:42Z</time>
      </trkpt>
      <trkpt lat="59.9464124" lon="17.8259615">
        <ele>26.5736</ele>
        <time>2012-04-28T04:47:56Z</time>
      </trkpt>
      <trkpt lat="59.946007" lon="17.8255414">
        <ele>27.5349</ele>
        <time>2012-04-28T04:48:05Z</time>
      </trkpt>
      <trkpt lat="59.9454384" lon="17.8249509">
        <ele>28.4962</ele>
        <time>2012-04-28T04:48:18Z</time>
      </trkpt>
      <trkpt lat="59.9449079" lon="17.8244026">
        <ele>28.9769</ele>
        <time>2012-04-28T04:48:30Z</time>
      </trkpt>
      <trkpt lat="59.9444408" lon="17.8239071">
        <ele>29.9381</ele>
        <time>2012-04-28T04:48:40Z</time>
      </trkpt>
      <trkpt lat="59.9439429" lon="17.8233134">
        <ele>29.4575</ele>
        <time>2012-04-28T04:48:50Z</time>
      </trkpt>
      <trkpt lat="59.9434571" lon="17.8226912">
        <ele>28.0155</ele>
        <time>2012-04-28T04:48:59Z</time>
      </trkpt>
      <trkpt lat="59.9428953" lon="17.8219976">
        <ele>26.5736</ele>
        <time>2012-04-28T04:49:09Z</time>
      </trkpt>
      <trkpt lat="59.9422491" lon="17.8211876">
        <ele>25.1317</ele>
        <time>2012-04-28T04:49:20Z</time>
      </trkpt>
      <trkpt lat="59.9414631" lon="17.8202057">
        <ele>24.651</ele>
        <time>2012-04-28T04:49:33Z</time>
      </trkpt>
      <trkpt lat="59.9410618" lon="17.8197053">
        <ele>25.6123</ele>
        <time>2012-04-28T04:49:41Z</time>
      </trkpt>
      <trkpt lat="59.9408851" lon="17.8194906">
        <ele>26.0929</ele>
        <time>2012-04-28T04:49:45Z</time>
      </trkpt>
      <trkpt lat="59.9406442" lon="17.8193086">
        <ele>27.0543</ele>
        <time>2012-04-28T04:49:50Z</time>
      </trkpt>
      <trkpt lat="59.940169" lon="17.8187676">
        <ele>28.4962</ele>
        <time>2012-04-28T04:50:00Z</time>
      </trkpt>
      <trkpt lat="59.9397958" lon="17.8183141">
        <ele>29.4575</ele>
        <time>2012-04-28T04:50:08Z</time>
      </trkpt>
      <trkpt lat="59.9396635" lon="17.8181342">
        <ele>29.9381</ele>
        <time>2012-04-28T04:50:11Z</time>
      </trkpt>
      <trkpt lat="59.9394739" lon="17.8181447">
        <ele>29.9381</ele>
        <time>2012-04-28T04:50:15Z</time>
      </trkpt>
      <trkpt lat="59.9394335" lon="17.8182197">
        <ele>29.4575</ele>
        <time>2012-04-28T04:50:16Z</time>
      </trkpt>
      <trkpt lat="59.93901" lon="17.81905">
        <ele>28.9769</ele>
        <time>2012-04-28T04:50:26Z</time>
      </trkpt>
      <trkpt lat="59.9387312" lon="17.8196418">
        <ele>29.4575</ele>
        <time>2012-04-28T04:50:33Z</time>
      </trkpt>
      <trkpt lat="59.938392" lon="17.8203958">
        <ele>28.9769</ele>
        <time>2012-04-28T04:50:41Z</time>
      </trkpt>
      <trkpt lat="59.9379298" lon="17.8214103">
        <ele>28.0155</ele>
        <time>2012-04-28T04:50:51Z</time>
      </trkpt>
      <trkpt lat="59.9376202" lon="17.8222464">
        <ele>28.0155</ele>
        <time>2012-04-28T04:50:59Z</time>
      </trkpt>
      <trkpt lat="59.9373549" lon="17.8229752">
        <ele>27.5349</ele>
        <time>2012-04-28T04:51:06Z</time>
      </trkpt>
      <trkpt lat="59.9369694" lon="17.8239754">
        <ele>27.5349</ele>
        <time>2012-04-28T04:51:16Z</time>
      </trkpt>
      <trkpt lat="59.9366803" lon="17.8245317">
        <ele>27.0543</ele>
        <time>2012-04-28T04:51:22Z</time>
      </trkpt>
      <trkpt lat="59.9365644" lon="17.8246735">
        <ele>27.0543</ele>
        <time>2012-04-28T04:51:24Z</time>
      </trkpt>
      <trkpt lat="59.9361065" lon="17.8249305">
        <ele>25.6123</ele>
        <time>2012-04-28T04:51:31Z</time>
      </trkpt>
      <trkpt lat="59.9354534" lon="17.8252042">
        <ele>23.6896</ele>
        <time>2012-04-28T04:51:41Z</time>
      </trkpt>
      <trkpt lat="59.9348166" lon="17.8254798">
        <ele>23.6896</ele>
        <time>2012-04-28T04:51:51Z</time>
      </trkpt>
      <trkpt lat="59.9342913" lon="17.8257149">
        <ele>24.1703</ele>
        <time>2012-04-28T04:52:00Z</time>
      </trkpt>
      <trkpt lat="59.9337652" lon="17.8259474">
        <ele>25.1317</ele>
        <time>2012-04-28T04:52:10Z</time>
      </trkpt>
      <trkpt lat="59.9333629" lon="17.8262276">
        <ele>25.6123</ele>
        <time>2012-04-28T04:52:18Z</time>
      </trkpt>
      <trkpt lat="59.9330179" lon="17.8266637">
        <ele>25.6123</ele>
        <time>2012-04-28T04:52:25Z</time>
      </trkpt>
      <trkpt lat="59.9326404" lon="17.8273016">
        <ele>25.6123</ele>
        <time>2012-04-28T04:52:33Z</time>
      </trkpt>
      <trkpt lat="59.9321728" lon="17.828181">
        <ele>26.5736</ele>
        <time>2012-04-28T04:52:44Z</time>
      </trkpt>
      <trkpt lat="59.9319199" lon="17.828912">
        <ele>27.5349</ele>
        <time>2012-04-28T04:52:52Z</time>
      </trkpt>
      <trkpt lat="59.9317344" lon="17.829632">
        <ele>28.4962</ele>
        <time>2012-04-28T04:53:00Z</time>
      </trkpt>
      <trkpt lat="59.9315371" lon="17.8303422">
        <ele>29.4575</ele>
        <time>2012-04-28T04:53:09Z</time>
      </trkpt>
      <trkpt lat="59.9313211" lon="17.8309183">
        <ele>28.4962</ele>
        <time>2012-04-28T04:53:16Z</time>
      </trkpt>
      <trkpt lat="59.930951" lon="17.8316233">
        <ele>28.9769</ele>
        <time>2012-04-28T04:53:25Z</time>
      </trkpt>
      <trkpt lat="59.9305129" lon="17.8322835">
        <ele>30.4188</ele>
        <time>2012-04-28T04:53:35Z</time>
      </trkpt>
      <trkpt lat="59.9301959" lon="17.832762">
        <ele>29.9381</ele>
        <time>2012-04-28T04:53:42Z</time>
      </trkpt>
      <trkpt lat="59.9298665" lon="17.8332859">
        <ele>29.9381</ele>
        <time>2012-04-28T04:53:49Z</time>
      </trkpt>
      <trkpt lat="59.9294445" lon="17.8339806">
        <ele>30.4188</ele>
        <time>2012-04-28T04:53:59Z</time>
      </trkpt>
      <trkpt lat="59.9290547" lon="17.8345271">
        <ele>29.9381</ele>
        <time>2012-04-28T04:54:07Z</time>
      </trkpt>
      <trkpt lat="59.928484" lon="17.8352996">
        <ele>29.9381</ele>
        <time>2012-04-28T04:54:18Z</time>
      </trkpt>
      <trkpt lat="59.9280291" lon="17.8359721">
        <ele>29.9381</ele>
        <time>2012-04-28T04:54:27Z</time>
      </trkpt>
      <trkpt lat="59.9275883" lon="17.8366624">
        <ele>28.9769</ele>
        <time>2012-04-28T04:54:36Z</time>
      </trkpt>
      <trkpt lat="59.9272172" lon="17.8371541">
        <ele>28.4962</ele>
        <time>2012-04-28T04:54:43Z</time>
      </trkpt>
      <trkpt lat="59.9270667" lon="17.8374069">
        <ele>27.5349</ele>
        <time>2012-04-28T04:54:46Z</time>
      </trkpt>
      <trkpt lat="59.9267081" lon="17.8377151">
        <ele>25.1317</ele>
        <time>2012-04-28T04:54:52Z</time>
      </trkpt>
      <trkpt lat="59.9265118" lon="17.8378765">
        <ele>22.7283</ele>
        <time>2012-04-28T04:54:55Z</time>
      </trkpt>
      <trkpt lat="59.9262336" lon="17.838417">
        <ele>21.2864</ele>
        <time>2012-04-28T04:55:00Z</time>
      </trkpt>
      <trkpt lat="59.9259061" lon="17.8391031">
        <ele>20.325</ele>
        <time>2012-04-28T04:55:06Z</time>
      </trkpt>
      <trkpt lat="59.9256321" lon="17.8393555">
        <ele>20.325</ele>
        <time>2012-04-28T04:55:10Z</time>
      </trkpt>
      <trkpt lat="59.9254904" lon="17.8393566">
        <ele>20.325</ele>
        <time>2012-04-28T04:55:12Z</time>
      </trkpt>
      <trkpt lat="59.9250553" lon="17.8393233">
        <ele>20.8057</ele>
        <time>2012-04-28T04:55:19Z</time>
      </trkpt>
      <trkpt lat="59.9243646" lon="17.839412">
        <ele>20.325</ele>
        <time>2012-04-28T04:55:30Z</time>
      </trkpt>
      <trkpt lat="59.9237603" lon="17.839626">
        <ele>20.325</ele>
        <time>2012-04-28T04:55:40Z</time>
      </trkpt>
      <trkpt lat="59.9232258" lon="17.8399027">
        <ele>20.325</ele>
        <time>2012-04-28T04:55:49Z</time>
      </trkpt>
      <trkpt lat="59.9226382" lon="17.8402286">
        <ele>20.8057</ele>
        <time>2012-04-28T04:55:59Z</time>
      </trkpt>
      <trkpt lat="59.9220599" lon="17.8404665">
        <ele>20.325</ele>
        <time>2012-04-28T04:56:08Z</time>
      </trkpt>
      <trkpt lat="59.9214069" lon="17.8406323">
        <ele>20.8057</ele>
        <time>2012-04-28T04:56:18Z</time>
      </trkpt>
      <trkpt lat="59.9209055" lon="17.840676">
        <ele>21.2864</ele>
        <time>2012-04-28T04:56:26Z</time>
      </trkpt>
      <trkpt lat="59.9203434" lon="17.8407023">
        <ele>21.767</ele>
        <time>2012-04-28T04:56:36Z</time>
      </trkpt>
      <trkpt lat="59.9199114" lon="17.8407014">
        <ele>21.2864</ele>
        <time>2012-04-28T04:56:44Z</time>
      </trkpt>
      <trkpt lat="59.9195421" lon="17.8408297">
        <ele>20.325</ele>
        <time>2012-04-28T04:56:50Z</time>
      </trkpt>
      <trkpt lat="59.9188986" lon="17.8412615">
        <ele>20.325</ele>
        <time>2012-04-28T04:57:00Z</time>
      </trkpt>
      <trkpt lat="59.9182776" lon="17.8417807">
        <ele>20.8057</ele>
        <time>2012-04-28T04:57:10Z</time>
      </trkpt>
      <trkpt lat="59.9179219" lon="17.8421519">
        <ele>21.767</ele>
        <time>2012-04-28T04:57:17Z</time>
      </trkpt>
      <trkpt lat="59.9174862" lon="17.8425816">
        <ele>22.2476</ele>
        <time>2012-04-28T04:57:26Z</time>
      </trkpt>
      <trkpt lat="59.9170405" lon="17.8429484">
        <ele>22.2476</ele>
        <time>2012-04-28T04:57:34Z</time>
      </trkpt>
      <trkpt lat="59.9168123" lon="17.8429302">
        <ele>21.767</ele>
        <time>2012-04-28T04:57:38Z</time>
      </trkpt>
      <trkpt lat="59.9167086" lon="17.8427874">
        <ele>21.2864</ele>
        <time>2012-04-28T04:57:40Z</time>
      </trkpt>
      <trkpt lat="59.9162242" lon="17.8420087">
        <ele>18.4023</ele>
        <time>2012-04-28T04:57:49Z</time>
      </trkpt>
      <trkpt lat="59.9159035" lon="17.8417878">
        <ele>17.4412</ele>
        <time>2012-04-28T04:57:54Z</time>
      </trkpt>
      <trkpt lat="59.9153258" lon="17.8417409">
        <ele>15.999</ele>
        <time>2012-04-28T04:58:03Z</time>
      </trkpt>
      <trkpt lat="59.9149456" lon="17.841803">
        <ele>15.5184</ele>
        <time>2012-04-28T04:58:09Z</time>
      </trkpt>
      <trkpt lat="59.9145835" lon="17.8420462">
        <ele>15.0377</ele>
        <time>2012-04-28T04:58:15Z</time>
      </trkpt>
      <trkpt lat="59.9141766" lon="17.8425258">
        <ele>15.0377</ele>
        <time>2012-04-28T04:58:22Z</time>
      </trkpt>
      <trkpt lat="59.9136232" lon="17.8430395">
        <ele>15.999</ele>
        <time>2012-04-28T04:58:31Z</time>
      </trkpt>
      <trkpt lat="59.9132465" lon="17.8432194">
        <ele>16.4797</ele>
        <time>2012-04-28T04:58:37Z</time>
      </trkpt>
      <trkpt lat="59.91282" lon="17.8433454">
        <ele>17.4412</ele>
        <time>2012-04-28T04:58:45Z</time>
      </trkpt>
      <trkpt lat="59.9124484" lon="17.8436213">
        <ele>16.9604</ele>
        <time>2012-04-28T04:58:53Z</time>
      </trkpt>
      <trkpt lat="59.9120827" lon="17.843997">
        <ele>16.4797</ele>
        <time>2012-04-28T04:59:00Z</time>
      </trkpt>
      <trkpt lat="59.911702" lon="17.8441979">
        <ele>14.557</ele>
        <time>2012-04-28T04:59:06Z</time>
      </trkpt>
      <trkpt lat="59.9111799" lon="17.8441995">
        <ele>13.1151</ele>
        <time>2012-04-28T04:59:14Z</time>
      </trkpt>
      <trkpt lat="59.9108624" lon="17.8440529">
        <ele>14.557</ele>
        <time>2012-04-28T04:59:19Z</time>
      </trkpt>
      <trkpt lat="59.9105532" lon="17.8438085">
        <ele>15.5184</ele>
        <time>2012-04-28T04:59:25Z</time>
      </trkpt>
      <trkpt lat="59.9103402" lon="17.8436606">
        <ele>15.999</ele>
        <time>2012-04-28T04:59:30Z</time>
      </trkpt>
      <trkpt lat="59.9102636" lon="17.8436008">
        <ele>15.999</ele>
        <time>2012-04-28T04:59:32Z</time>
      </trkpt>
      <trkpt lat="59.9100235" lon="17.8433733">
        <ele>15.999</ele>
        <time>2012-04-28T04:59:38Z</time>
      </trkpt>
      <trkpt lat="59.909745" lon="17.8430667">
        <ele>16.4797</ele>
        <time>2012-04-28T04:59:45Z</time>
      </trkpt>
      <trkpt lat="59.9096342" lon="17.8427077">
        <ele>16.4797</ele>
        <time>2012-04-28T04:59:49Z</time>
      </trkpt>
      <trkpt lat="59.9096378" lon="17.8424822">
        <ele>16.4797</ele>
        <time>2012-04-28T04:59:51Z</time>
      </trkpt>
      <trkpt lat="59.9096849" lon="17.8416002">
        <ele>15.0377</ele>
        <time>2012-04-28T04:59:58Z</time>
      </trkpt>
      <trkpt lat="59.9096787" lon="17.8414551">
        <ele>14.557</ele>
        <time>2012-04-28T04:59:59Z</time>
      </trkpt>
      <trkpt lat="59.9095581" lon="17.840776">
        <ele>14.0764</ele>
        <time>2012-04-28T05:00:04Z</time>
      </trkpt>
      <trkpt lat="59.9091895" lon="17.8397575">
        <ele>15.5184</ele>
        <time>2012-04-28T05:00:13Z</time>
      </trkpt>
      <trkpt lat="59.9089906" lon="17.8392374">
        <ele>17.4412</ele>
        <time>2012-04-28T05:00:19Z</time>
      </trkpt>
      <trkpt lat="59.9089111" lon="17.839046">
        <ele>18.8831</ele>
        <time>2012-04-28T05:00:22Z</time>
      </trkpt>
      <trkpt lat="59.9088069" lon="17.8388656">
        <ele>19.3638</ele>
        <time>2012-04-28T05:00:26Z</time>
      </trkpt>
      <trkpt lat="59.9085262" lon="17.8386242">
        <ele>22.2476</ele>
        <time>2012-04-28T05:00:36Z</time>
      </trkpt>
      <trkpt lat="59.9083085" lon="17.8385919">
        <ele>23.209</ele>
        <time>2012-04-28T05:00:43Z</time>
      </trkpt>
      <trkpt lat="59.9080733" lon="17.838716">
        <ele>23.209</ele>
        <time>2012-04-28T05:00:50Z</time>
      </trkpt>
      <trkpt lat="59.9077605" lon="17.8390747">
        <ele>24.1703</ele>
        <time>2012-04-28T05:01:00Z</time>
      </trkpt>
      <trkpt lat="59.9075466" lon="17.839353">
        <ele>24.651</ele>
        <time>2012-04-28T05:01:07Z</time>
      </trkpt>
      <trkpt lat="59.9074252" lon="17.8394891">
        <ele>23.6896</ele>
        <time>2012-04-28T05:01:10Z</time>
      </trkpt>
      <trkpt lat="59.9070744" lon="17.8397883">
        <ele>20.8057</ele>
        <time>2012-04-28T05:01:16Z</time>
      </trkpt>
      <trkpt lat="59.9066203" lon="17.8401438">
        <ele>19.3638</ele>
        <time>2012-04-28T05:01:22Z</time>
      </trkpt>
      <trkpt lat="59.9062628" lon="17.8405081">
        <ele>17.4412</ele>
        <time>2012-04-28T05:01:27Z</time>
      </trkpt>
      <trkpt lat="59.9059884" lon="17.840904">
        <ele>17.9218</ele>
        <time>2012-04-28T05:01:31Z</time>
      </trkpt>
      <trkpt lat="59.9055927" lon="17.8412008">
        <ele>19.3638</ele>
        <time>2012-04-28T05:01:36Z</time>
      </trkpt>
      <trkpt lat="59.9051264" lon="17.8413685">
        <ele>21.767</ele>
        <time>2012-04-28T05:01:43Z</time>
      </trkpt>
      <trkpt lat="59.9048938" lon="17.8414716">
        <ele>22.7283</ele>
        <time>2012-04-28T05:01:48Z</time>
      </trkpt>
      <trkpt lat="59.9046068" lon="17.841638">
        <ele>21.2864</ele>
        <time>2012-04-28T05:01:55Z</time>
      </trkpt>
      <trkpt lat="59.9043016" lon="17.8418435">
        <ele>20.325</ele>
        <time>2012-04-28T05:02:01Z</time>
      </trkpt>
      <trkpt lat="59.9041411" lon="17.8419183">
        <ele>19.3638</ele>
        <time>2012-04-28T05:02:04Z</time>
      </trkpt>
      <trkpt lat="59.9038123" lon="17.8418695">
        <ele>19.8444</ele>
        <time>2012-04-28T05:02:11Z</time>
      </trkpt>
      <trkpt lat="59.9035604" lon="17.8415909">
        <ele>22.2476</ele>
        <time>2012-04-28T05:02:19Z</time>
      </trkpt>
      <trkpt lat="59.9032844" lon="17.8412518">
        <ele>26.5736</ele>
        <time>2012-04-28T05:02:28Z</time>
      </trkpt>
      <trkpt lat="59.9030848" lon="17.8412141">
        <ele>27.0543</ele>
        <time>2012-04-28T05:02:33Z</time>
      </trkpt>
      <trkpt lat="59.9027354" lon="17.8413334">
        <ele>26.0929</ele>
        <time>2012-04-28T05:02:40Z</time>
      </trkpt>
      <trkpt lat="59.9024308" lon="17.8414505">
        <ele>22.2476</ele>
        <time>2012-04-28T05:02:47Z</time>
      </trkpt>
      <trkpt lat="59.9023618" lon="17.8414773">
        <ele>21.2864</ele>
        <time>2012-04-28T05:02:49Z</time>
      </trkpt>
      <trkpt lat="59.9022921" lon="17.841497">
        <ele>20.8057</ele>
        <time>2012-04-28T05:02:51Z</time>
      </trkpt>
      <trkpt lat="59.9020297" lon="17.8415137">
        <ele>23.6896</ele>
        <time>2012-04-28T05:02:58Z</time>
      </trkpt>
      <trkpt lat="59.9017256" lon="17.8414784">
        <ele>25.6123</ele>
        <time>2012-04-28T05:03:04Z</time>
      </trkpt>
      <trkpt lat="59.901163" lon="17.8413944">
        <ele>27.5349</ele>
        <time>2012-04-28T05:03:14Z</time>
      </trkpt>
      <trkpt lat="59.9007756" lon="17.8413496">
        <ele>29.4575</ele>
        <time>2012-04-28T05:03:21Z</time>
      </trkpt>
      <trkpt lat="59.9003419" lon="17.8413119">
        <ele>32.8223</ele>
        <time>2012-04-28T05:03:30Z</time>
      </trkpt>
      <trkpt lat="59.9002132" lon="17.8413172">
        <ele>33.7834</ele>
        <time>2012-04-28T05:03:33Z</time>
      </trkpt>
      <trkpt lat="59.8998166" lon="17.8413645">
        <ele>36.1868</ele>
        <time>2012-04-28T05:03:43Z</time>
      </trkpt>
      <trkpt lat="59.8995893" lon="17.8414138">
        <ele>37.6287</ele>
        <time>2012-04-28T05:03:50Z</time>
      </trkpt>
      <trkpt lat="59.8993761" lon="17.8415732">
        <ele>39.0707</ele>
        <time>2012-04-28T05:03:57Z</time>
      </trkpt>
      <trkpt lat="59.8991613" lon="17.841798">
        <ele>38.1094</ele>
        <time>2012-04-28T05:04:03Z</time>
      </trkpt>
      <trkpt lat="59.8988826" lon="17.8419799">
        <ele>36.6675</ele>
        <time>2012-04-28T05:04:09Z</time>
      </trkpt>
      <trkpt lat="59.8988314" lon="17.8420171">
        <ele>36.6675</ele>
        <time>2012-04-28T05:04:10Z</time>
      </trkpt>
      <trkpt lat="59.8983399" lon="17.8422037">
        <ele>33.7834</ele>
        <time>2012-04-28T05:04:18Z</time>
      </trkpt>
      <trkpt lat="59.8980175" lon="17.8421742">
        <ele>30.8995</ele>
        <time>2012-04-28T05:04:23Z</time>
      </trkpt>
      <trkpt lat="59.8977686" lon="17.8422126">
        <ele>28.9769</ele>
        <time>2012-04-28T05:04:27Z</time>
      </trkpt>
      <trkpt lat="59.8975838" lon="17.8422891">
        <ele>27.0543</ele>
        <time>2012-04-28T05:04:30Z</time>
      </trkpt>
      <trkpt lat="59.8972806" lon="17.8425185">
        <ele>26.0929</ele>
        <time>2012-04-28T05:04:35Z</time>
      </trkpt>
      <trkpt lat="59.8970896" lon="17.8427242">
        <ele>23.209</ele>
        <time>2012-04-28T05:04:38Z</time>
      </trkpt>
      <trkpt lat="59.8966829" lon="17.8428651">
        <ele>20.8057</ele>
        <time>2012-04-28T05:04:43Z</time>
      </trkpt>
      <trkpt lat="59.8960415" lon="17.8426769">
        <ele>21.767</ele>
        <time>2012-04-28T05:04:49Z</time>
      </trkpt>
      <trkpt lat="59.8957075" lon="17.8427754">
        <ele>22.2476</ele>
        <time>2012-04-28T05:04:53Z</time>
      </trkpt>
      <trkpt lat="59.8950908" lon="17.8430423">
        <ele>20.8057</ele>
        <time>2012-04-28T05:05:01Z</time>
      </trkpt>
      <trkpt lat="59.8947984" lon="17.8431116">
        <ele>20.325</ele>
        <time>2012-04-28T05:05:05Z</time>
      </trkpt>
      <trkpt lat="59.8943559" lon="17.8430295">
        <ele>21.767</ele>
        <time>2012-04-28T05:05:11Z</time>
      </trkpt>
      <trkpt lat="59.894213" lon="17.8430081">
        <ele>22.2476</ele>
        <time>2012-04-28T05:05:13Z</time>
      </trkpt>
      <trkpt lat="59.8938756" lon="17.8430058">
        <ele>22.2476</ele>
        <time>2012-04-28T05:05:18Z</time>
      </trkpt>
      <trkpt lat="59.8938115" lon="17.8429986">
        <ele>22.2476</ele>
        <time>2012-04-28T05:05:19Z</time>
      </trkpt>
      <trkpt lat="59.8934803" lon="17.8429304">
        <ele>23.6896</ele>
        <time>2012-04-28T05:05:24Z</time>
      </trkpt>
      <trkpt lat="59.8930433" lon="17.8427469">
        <ele>26.0929</ele>
        <time>2012-04-28T05:05:31Z</time>
      </trkpt>
      <trkpt lat="59.89256" lon="17.8425061">
        <ele>28.4962</ele>
        <time>2012-04-28T05:05:40Z</time>
      </trkpt>
      <trkpt lat="59.8920587" lon="17.8422844">
        <ele>30.8995</ele>
        <time>2012-04-28T05:05:50Z</time>
      </trkpt>
      <trkpt lat="59.8916037" lon="17.8421694">
        <ele>32.3416</ele>
        <time>2012-04-28T05:05:59Z</time>
      </trkpt>
      <trkpt lat="59.8912241" lon="17.8419807">
        <ele>32.3416</ele>
        <time>2012-04-28T05:06:07Z</time>
      </trkpt>
      <trkpt lat="59.890869" lon="17.8416443">
        <ele>32.3416</ele>
        <time>2012-04-28T05:06:14Z</time>
      </trkpt>
      <trkpt lat="59.8905008" lon="17.8410897">
        <ele>32.3416</ele>
        <time>2012-04-28T05:06:22Z</time>
      </trkpt>
      <trkpt lat="59.8903541" lon="17.8408799">
        <ele>32.3416</ele>
        <time>2012-04-28T05:06:25Z</time>
      </trkpt>
      <trkpt lat="59.8900738" lon="17.8408169">
        <ele>32.8223</ele>
        <time>2012-04-28T05:06:30Z</time>
      </trkpt>
      <trkpt lat="59.8899399" lon="17.8410346">
        <ele>32.8223</ele>
        <time>2012-04-28T05:06:33Z</time>
      </trkpt>
      <trkpt lat="59.8898327" lon="17.841481">
        <ele>33.7834</ele>
        <time>2012-04-28T05:06:37Z</time>
      </trkpt>
      <trkpt lat="59.889819" lon="17.841606">
        <ele>34.2642</ele>
        <time>2012-04-28T05:06:38Z</time>
      </trkpt>
      <trkpt lat="59.8897398" lon="17.8427235">
        <ele>30.8995</ele>
        <time>2012-04-28T05:06:46Z</time>
      </trkpt>
      <trkpt lat="59.8897228" lon="17.8428794">
        <ele>30.4188</ele>
        <time>2012-04-28T05:06:47Z</time>
      </trkpt>
      <trkpt lat="59.8894959" lon="17.8433501">
        <ele>29.9381</ele>
        <time>2012-04-28T05:06:51Z</time>
      </trkpt>
      <trkpt lat="59.8892622" lon="17.8433144">
        <ele>29.9381</ele>
        <time>2012-04-28T05:06:54Z</time>
      </trkpt>
      <trkpt lat="59.8891953" lon="17.8432589">
        <ele>29.4575</ele>
        <time>2012-04-28T05:06:55Z</time>
      </trkpt>
      <trkpt lat="59.8890634" lon="17.8431375">
        <ele>30.4188</ele>
        <time>2012-04-28T05:06:57Z</time>
      </trkpt>
      <trkpt lat="59.8886371" lon="17.8430252">
        <ele>30.4188</ele>
        <time>2012-04-28T05:07:03Z</time>
      </trkpt>
      <trkpt lat="59.8882869" lon="17.8428958">
        <ele>30.4188</ele>
        <time>2012-04-28T05:07:08Z</time>
      </trkpt>
      <trkpt lat="59.887811" lon="17.842446">
        <ele>29.4575</ele>
        <time>2012-04-28T05:07:15Z</time>
      </trkpt>
      <trkpt lat="59.887455" lon="17.8418944">
        <ele>29.9381</ele>
        <time>2012-04-28T05:07:21Z</time>
      </trkpt>
      <trkpt lat="59.8872923" lon="17.841467">
        <ele>29.4575</ele>
        <time>2012-04-28T05:07:25Z</time>
      </trkpt>
      <trkpt lat="59.8870166" lon="17.8410664">
        <ele>28.9769</ele>
        <time>2012-04-28T05:07:30Z</time>
      </trkpt>
      <trkpt lat="59.8867387" lon="17.8410064">
        <ele>28.9769</ele>
        <time>2012-04-28T05:07:34Z</time>
      </trkpt>
      <trkpt lat="59.8866702" lon="17.8410256">
        <ele>28.9769</ele>
        <time>2012-04-28T05:07:35Z</time>
      </trkpt>
      <trkpt lat="59.8861403" lon="17.8412739">
        <ele>28.9769</ele>
        <time>2012-04-28T05:07:43Z</time>
      </trkpt>
      <trkpt lat="59.8856848" lon="17.8413587">
        <ele>28.4962</ele>
        <time>2012-04-28T05:07:50Z</time>
      </trkpt>
      <trkpt lat="59.885117" lon="17.8414014">
        <ele>27.0543</ele>
        <time>2012-04-28T05:07:59Z</time>
      </trkpt>
      <trkpt lat="59.8847831" lon="17.841369">
        <ele>26.5736</ele>
        <time>2012-04-28T05:08:04Z</time>
      </trkpt>
      <trkpt lat="59.8843531" lon="17.8410709">
        <ele>27.0543</ele>
        <time>2012-04-28T05:08:11Z</time>
      </trkpt>
      <trkpt lat="59.8840324" lon="17.840688">
        <ele>27.0543</ele>
        <time>2012-04-28T05:08:17Z</time>
      </trkpt>
      <trkpt lat="59.8836056" lon="17.8401295">
        <ele>28.9769</ele>
        <time>2012-04-28T05:08:26Z</time>
      </trkpt>
      <trkpt lat="59.8832752" lon="17.8396865">
        <ele>30.8995</ele>
        <time>2012-04-28T05:08:35Z</time>
      </trkpt>
      <trkpt lat="59.8830191" lon="17.839351">
        <ele>33.3029</ele>
        <time>2012-04-28T05:08:43Z</time>
      </trkpt>
      <trkpt lat="59.8827608" lon="17.8390738">
        <ele>35.2255</ele>
        <time>2012-04-28T05:08:52Z</time>
      </trkpt>
      <trkpt lat="59.8825183" lon="17.8389698">
        <ele>33.7834</ele>
        <time>2012-04-28T05:08:58Z</time>
      </trkpt>
      <trkpt lat="59.8822866" lon="17.8388961">
        <ele>32.8223</ele>
        <time>2012-04-28T05:09:02Z</time>
      </trkpt>
      <trkpt lat="59.8819723" lon="17.8386044">
        <ele>31.3801</ele>
        <time>2012-04-28T05:09:07Z</time>
      </trkpt>
      <trkpt lat="59.8815839" lon="17.8380109">
        <ele>30.4188</ele>
        <time>2012-04-28T05:09:14Z</time>
      </trkpt>
      <trkpt lat="59.8810566" lon="17.8372229">
        <ele>30.8995</ele>
        <time>2012-04-28T05:09:24Z</time>
      </trkpt>
      <trkpt lat="59.8806744" lon="17.8366003">
        <ele>30.4188</ele>
        <time>2012-04-28T05:09:32Z</time>
      </trkpt>
      <trkpt lat="59.8802689" lon="17.8360953">
        <ele>30.4188</ele>
        <time>2012-04-28T05:09:39Z</time>
      </trkpt>
      <trkpt lat="59.8799732" lon="17.83583">
        <ele>31.3801</ele>
        <time>2012-04-28T05:09:44Z</time>
      </trkpt>
      <trkpt lat="59.8795899" lon="17.8357423">
        <ele>30.4188</ele>
        <time>2012-04-28T05:09:50Z</time>
      </trkpt>
      <trkpt lat="59.8791241" lon="17.8357202">
        <ele>29.9381</ele>
        <time>2012-04-28T05:09:56Z</time>
      </trkpt>
      <trkpt lat="59.8787943" lon="17.8355808">
        <ele>29.4575</ele>
        <time>2012-04-28T05:10:01Z</time>
      </trkpt>
      <trkpt lat="59.8783172" lon="17.8352269">
        <ele>28.4962</ele>
        <time>2012-04-28T05:10:08Z</time>
      </trkpt>
      <trkpt lat="59.8778355" lon="17.8347215">
        <ele>29.9381</ele>
        <time>2012-04-28T05:10:16Z</time>
      </trkpt>
      <trkpt lat="59.8772865" lon="17.8340025">
        <ele>29.9381</ele>
        <time>2012-04-28T05:10:26Z</time>
      </trkpt>
      <trkpt lat="59.8768779" lon="17.8336087">
        <ele>31.3801</ele>
        <time>2012-04-28T05:10:33Z</time>
      </trkpt>
      <trkpt lat="59.876571" lon="17.8334182">
        <ele>32.8223</ele>
        <time>2012-04-28T05:10:39Z</time>
      </trkpt>
      <trkpt lat="59.8762355" lon="17.833184">
        <ele>31.8607</ele>
        <time>2012-04-28T05:10:45Z</time>
      </trkpt>
      <trkpt lat="59.8758822" lon="17.8328913">
        <ele>30.4188</ele>
        <time>2012-04-28T05:10:51Z</time>
      </trkpt>
      <trkpt lat="59.8754439" lon="17.8324837">
        <ele>29.9381</ele>
        <time>2012-04-28T05:10:59Z</time>
      </trkpt>
      <trkpt lat="59.8750439" lon="17.8323267">
        <ele>29.9381</ele>
        <time>2012-04-28T05:11:05Z</time>
      </trkpt>
      <trkpt lat="59.8745074" lon="17.8321776">
        <ele>30.4188</ele>
        <time>2012-04-28T05:11:13Z</time>
      </trkpt>
      <trkpt lat="59.8742352" lon="17.8319707">
        <ele>31.3801</ele>
        <time>2012-04-28T05:11:18Z</time>
      </trkpt>
      <trkpt lat="59.8738549" lon="17.8314953">
        <ele>30.8995</ele>
        <time>2012-04-28T05:11:26Z</time>
      </trkpt>
      <trkpt lat="59.8734443" lon="17.8310027">
        <ele>28.4962</ele>
        <time>2012-04-28T05:11:34Z</time>
      </trkpt>
      <trkpt lat="59.8729337" lon="17.8306224">
        <ele>27.0543</ele>
        <time>2012-04-28T05:11:42Z</time>
      </trkpt>
      <trkpt lat="59.8724983" lon="17.8304182">
        <ele>25.1317</ele>
        <time>2012-04-28T05:11:48Z</time>
      </trkpt>
      <trkpt lat="59.872059" lon="17.8300352">
        <ele>22.7283</ele>
        <time>2012-04-28T05:11:54Z</time>
      </trkpt>
      <trkpt lat="59.8714735" lon="17.829489">
        <ele>20.325</ele>
        <time>2012-04-28T05:12:02Z</time>
      </trkpt>
      <trkpt lat="59.8710091" lon="17.8290553">
        <ele>19.8444</ele>
        <time>2012-04-28T05:12:09Z</time>
      </trkpt>
      <trkpt lat="59.8705181" lon="17.8285774">
        <ele>20.325</ele>
        <time>2012-04-28T05:12:18Z</time>
      </trkpt>
      <trkpt lat="59.8700804" lon="17.828151">
        <ele>22.2476</ele>
        <time>2012-04-28T05:12:27Z</time>
      </trkpt>
      <trkpt lat="59.8696732" lon="17.8276259">
        <ele>24.1703</ele>
        <time>2012-04-28T05:12:37Z</time>
      </trkpt>
      <trkpt lat="59.8693387" lon="17.8270352">
        <ele>24.651</ele>
        <time>2012-04-28T05:12:47Z</time>
      </trkpt>
      <trkpt lat="59.8689714" lon="17.8264046">
        <ele>25.1317</ele>
        <time>2012-04-28T05:12:57Z</time>
      </trkpt>
      <trkpt lat="59.8686177" lon="17.8257575">
        <ele>26.0929</ele>
        <time>2012-04-28T05:13:07Z</time>
      </trkpt>
      <trkpt lat="59.8684854" lon="17.8256196">
        <ele>26.0929</ele>
        <time>2012-04-28T05:13:10Z</time>
      </trkpt>
      <trkpt lat="59.8682125" lon="17.8255693">
        <ele>25.6123</ele>
        <time>2012-04-28T05:13:15Z</time>
      </trkpt>
      <trkpt lat="59.8681507" lon="17.8255971">
        <ele>25.6123</ele>
        <time>2012-04-28T05:13:16Z</time>
      </trkpt>
      <trkpt lat="59.8676974" lon="17.8259061">
        <ele>25.1317</ele>
        <time>2012-04-28T05:13:23Z</time>
      </trkpt>
      <trkpt lat="59.8671071" lon="17.8263309">
        <ele>23.6896</ele>
        <time>2012-04-28T05:13:31Z</time>
      </trkpt>
      <trkpt lat="59.866477" lon="17.8266633">
        <ele>23.6896</ele>
        <time>2012-04-28T05:13:39Z</time>
      </trkpt>
      <trkpt lat="59.8661031" lon="17.8267006">
        <ele>23.209</ele>
        <time>2012-04-28T05:13:44Z</time>
      </trkpt>
      <trkpt lat="59.8655037" lon="17.8265726">
        <ele>21.767</ele>
        <time>2012-04-28T05:13:52Z</time>
      </trkpt>
      <trkpt lat="59.8652422" lon="17.8265114">
        <ele>22.2476</ele>
        <time>2012-04-28T05:13:56Z</time>
      </trkpt>
      <trkpt lat="59.8650374" lon="17.8263152">
        <ele>21.767</ele>
        <time>2012-04-28T05:14:00Z</time>
      </trkpt>
      <trkpt lat="59.8647113" lon="17.8256922">
        <ele>19.3638</ele>
        <time>2012-04-28T05:14:07Z</time>
      </trkpt>
      <trkpt lat="59.8642958" lon="17.8247757">
        <ele>15.999</ele>
        <time>2012-04-28T05:14:15Z</time>
      </trkpt>
      <trkpt lat="59.8637922" lon="17.8236655">
        <ele>14.557</ele>
        <time>2012-04-28T05:14:25Z</time>
      </trkpt>
      <trkpt lat="59.8634275" lon="17.8227845">
        <ele>15.5184</ele>
        <time>2012-04-28T05:14:33Z</time>
      </trkpt>
      <trkpt lat="59.863154" lon="17.8220272">
        <ele>16.9604</ele>
        <time>2012-04-28T05:14:41Z</time>
      </trkpt>
      <trkpt lat="59.8629643" lon="17.8214085">
        <ele>18.8831</ele>
        <time>2012-04-28T05:14:49Z</time>
      </trkpt>
      <trkpt lat="59.8628219" lon="17.8209118">
        <ele>20.8057</ele>
        <time>2012-04-28T05:14:57Z</time>
      </trkpt>
      <trkpt lat="59.8626926" lon="17.8204385">
        <ele>21.767</ele>
        <time>2012-04-28T05:15:06Z</time>
      </trkpt>
      <trkpt lat="59.8625764" lon="17.8198955">
        <ele>21.2864</ele>
        <time>2012-04-28T05:15:16Z</time>
      </trkpt>
      <trkpt lat="59.862453" lon="17.8192941">
        <ele>21.2864</ele>
        <time>2012-04-28T05:15:25Z</time>
      </trkpt>
      <trkpt lat="59.8622818" lon="17.8189225">
        <ele>21.767</ele>
        <time>2012-04-28T05:15:31Z</time>
      </trkpt>
      <trkpt lat="59.8620383" lon="17.8187061">
        <ele>22.7283</ele>
        <time>2012-04-28T05:15:37Z</time>
      </trkpt>
      <trkpt lat="59.861798" lon="17.8185523">
        <ele>23.6896</ele>
        <time>2012-04-28T05:15:43Z</time>
      </trkpt>
      <trkpt lat="59.861485" lon="17.8183483">
        <ele>23.209</ele>
        <time>2012-04-28T05:15:51Z</time>
      </trkpt>
      <trkpt lat="59.8611783" lon="17.8180841">
        <ele>22.2476</ele>
        <time>2012-04-28T05:15:57Z</time>
      </trkpt>
      <trkpt lat="59.8608338" lon="17.8176852">
        <ele>22.7283</ele>
        <time>2012-04-28T05:16:04Z</time>
      </trkpt>
      <trkpt lat="59.8604952" lon="17.8172257">
        <ele>21.767</ele>
        <time>2012-04-28T05:16:10Z</time>
      </trkpt>
      <trkpt lat="59.8600564" lon="17.8166445">
        <ele>21.2864</ele>
        <time>2012-04-28T05:16:18Z</time>
      </trkpt>
      <trkpt lat="59.8596006" lon="17.8162253">
        <ele>21.767</ele>
        <time>2012-04-28T05:16:26Z</time>
      </trkpt>
      <trkpt lat="59.8590162" lon="17.8157307">
        <ele>22.2476</ele>
        <time>2012-04-28T05:16:36Z</time>
      </trkpt>
      <trkpt lat="59.8584732" lon="17.8153027">
        <ele>24.1703</ele>
        <time>2012-04-28T05:16:46Z</time>
      </trkpt>
      <trkpt lat="59.8581667" lon="17.8150763">
        <ele>24.651</ele>
        <time>2012-04-28T05:16:53Z</time>
      </trkpt>
      <trkpt lat="59.8578458" lon="17.81489">
        <ele>23.209</ele>
        <time>2012-04-28T05:16:59Z</time>
      </trkpt>
      <trkpt lat="59.8577382" lon="17.8145334">
        <ele>22.7283</ele>
        <time>2012-04-28T05:17:03Z</time>
      </trkpt>
      <trkpt lat="59.8577533" lon="17.8144244">
        <ele>22.7283</ele>
        <time>2012-04-28T05:17:04Z</time>
      </trkpt>
      <trkpt lat="59.8579165" lon="17.8133612">
        <ele>21.2864</ele>
        <time>2012-04-28T05:17:13Z</time>
      </trkpt>
      <trkpt lat="59.8579947" lon="17.8123056">
        <ele>21.2864</ele>
        <time>2012-04-28T05:17:21Z</time>
      </trkpt>
      <trkpt lat="59.8579983" lon="17.8114436">
        <ele>21.2864</ele>
        <time>2012-04-28T05:17:28Z</time>
      </trkpt>
      <trkpt lat="59.8579296" lon="17.8103414">
        <ele>21.2864</ele>
        <time>2012-04-28T05:17:37Z</time>
      </trkpt>
      <trkpt lat="59.8577892" lon="17.8094011">
        <ele>21.2864</ele>
        <time>2012-04-28T05:17:45Z</time>
      </trkpt>
      <trkpt lat="59.8575345" lon="17.8082904">
        <ele>20.8057</ele>
        <time>2012-04-28T05:17:55Z</time>
      </trkpt>
      <trkpt lat="59.8572027" lon="17.8071282">
        <ele>21.2864</ele>
        <time>2012-04-28T05:18:06Z</time>
      </trkpt>
      <trkpt lat="59.8569001" lon="17.8061298">
        <ele>21.767</ele>
        <time>2012-04-28T05:18:16Z</time>
      </trkpt>
      <trkpt lat="59.8565565" lon="17.8049794">
        <ele>23.209</ele>
        <time>2012-04-28T05:18:28Z</time>
      </trkpt>
      <trkpt lat="59.8563105" lon="17.8041093">
        <ele>24.1703</ele>
        <time>2012-04-28T05:18:38Z</time>
      </trkpt>
      <trkpt lat="59.8562126" lon="17.8037807">
        <ele>24.651</ele>
        <time>2012-04-28T05:18:42Z</time>
      </trkpt>
      <trkpt lat="59.8561719" lon="17.8035131">
        <ele>25.1317</ele>
        <time>2012-04-28T05:18:45Z</time>
      </trkpt>
      <trkpt lat="59.8560877" lon="17.8031845">
        <ele>25.1317</ele>
        <time>2012-04-28T05:18:49Z</time>
      </trkpt>
      <trkpt lat="59.8560232" lon="17.8030509">
        <ele>25.6123</ele>
        <time>2012-04-28T05:18:51Z</time>
      </trkpt>
      <trkpt lat="59.8558505" lon="17.8024857">
        <ele>26.5736</ele>
        <time>2012-04-28T05:18:59Z</time>
      </trkpt>
      <trkpt lat="59.8558094" lon="17.8023477">
        <ele>26.5736</ele>
        <time>2012-04-28T05:19:01Z</time>
      </trkpt>
      <trkpt lat="59.8556957" lon="17.8017757">
        <ele>27.5349</ele>
        <time>2012-04-28T05:19:09Z</time>
      </trkpt>
      <trkpt lat="59.8555528" lon="17.8012345">
        <ele>28.9769</ele>
        <time>2012-04-28T05:19:18Z</time>
      </trkpt>
      <trkpt lat="59.8553849" lon="17.8006111">
        <ele>29.9381</ele>
        <time>2012-04-28T05:19:28Z</time>
      </trkpt>
      <trkpt lat="59.8552434" lon="17.8001194">
        <ele>29.9381</ele>
        <time>2012-04-28T05:19:35Z</time>
      </trkpt>
      <trkpt lat="59.8550146" lon="17.7993348">
        <ele>29.9381</ele>
        <time>2012-04-28T05:19:45Z</time>
      </trkpt>
      <trkpt lat="59.8548" lon="17.7985295">
        <ele>29.4575</ele>
        <time>2012-04-28T05:19:54Z</time>
      </trkpt>
      <trkpt lat="59.8545406" lon="17.7975319">
        <ele>30.8995</ele>
        <time>2012-04-28T05:20:04Z</time>
      </trkpt>
      <trkpt lat="59.8543226" lon="17.7967362">
        <ele>31.8607</ele>
        <time>2012-04-28T05:20:12Z</time>
      </trkpt>
      <trkpt lat="59.8541138" lon="17.7959701">
        <ele>32.3416</ele>
        <time>2012-04-28T05:20:20Z</time>
      </trkpt>
      <trkpt lat="59.8538226" lon="17.7949656">
        <ele>32.8223</ele>
        <time>2012-04-28T05:20:30Z</time>
      </trkpt>
      <trkpt lat="59.8535611" lon="17.7941463">
        <ele>32.8223</ele>
        <time>2012-04-28T05:20:38Z</time>
      </trkpt>
      <trkpt lat="59.8531964" lon="17.7930626">
        <ele>32.3416</ele>
        <time>2012-04-28T05:20:48Z</time>
      </trkpt>
      <trkpt lat="59.8528828" lon="17.7921643">
        <ele>31.3801</ele>
        <time>2012-04-28T05:20:57Z</time>
      </trkpt>
      <trkpt lat="59.8525163" lon="17.7912014">
        <ele>32.3416</ele>
        <time>2012-04-28T05:21:07Z</time>
      </trkpt>
      <trkpt lat="59.8521864" lon="17.7904085">
        <ele>32.8223</ele>
        <time>2012-04-28T05:21:16Z</time>
      </trkpt>
      <trkpt lat="59.8518428" lon="17.789548">
        <ele>32.8223</ele>
        <time>2012-04-28T05:21:26Z</time>
      </trkpt>
      <trkpt lat="59.851557" lon="17.788831">
        <ele>33.3029</ele>
        <time>2012-04-28T05:21:35Z</time>
      </trkpt>
      <trkpt lat="59.8512222" lon="17.7880041">
        <ele>33.3029</ele>
        <time>2012-04-28T05:21:45Z</time>
      </trkpt>
      <trkpt lat="59.8508244" lon="17.7870583">
        <ele>32.3416</ele>
        <time>2012-04-28T05:21:55Z</time>
      </trkpt>
      <trkpt lat="59.8505417" lon="17.7863259">
        <ele>30.8995</ele>
        <time>2012-04-28T05:22:02Z</time>
      </trkpt>
      <trkpt lat="59.8501723" lon="17.7853508">
        <ele>28.9769</ele>
        <time>2012-04-28T05:22:11Z</time>
      </trkpt>
      <trkpt lat="59.8499369" lon="17.7845583">
        <ele>28.0155</ele>
        <time>2012-04-28T05:22:17Z</time>
      </trkpt>
      <trkpt lat="59.8498366" lon="17.7841508">
        <ele>27.5349</ele>
        <time>2012-04-28T05:22:20Z</time>
      </trkpt>
      <trkpt lat="59.849643" lon="17.7831491">
        <ele>26.0929</ele>
        <time>2012-04-28T05:22:27Z</time>
      </trkpt>
      <trkpt lat="59.8493615" lon="17.781786">
        <ele>24.651</ele>
        <time>2012-04-28T05:22:37Z</time>
      </trkpt>
      <trkpt lat="59.8491563" lon="17.7807665">
        <ele>24.651</ele>
        <time>2012-04-28T05:22:45Z</time>
      </trkpt>
      <trkpt lat="59.8490281" lon="17.779914">
        <ele>25.1317</ele>
        <time>2012-04-28T05:22:52Z</time>
      </trkpt>
      <trkpt lat="59.848976" lon="17.7797001">
        <ele>25.1317</ele>
        <time>2012-04-28T05:22:54Z</time>
      </trkpt>
      <trkpt lat="59.8488958" lon="17.7788743">
        <ele>25.1317</ele>
        <time>2012-04-28T05:23:01Z</time>
      </trkpt>
      <trkpt lat="59.8488659" lon="17.7778762">
        <ele>24.651</ele>
        <time>2012-04-28T05:23:09Z</time>
      </trkpt>
      <trkpt lat="59.848815" lon="17.7771094">
        <ele>24.1703</ele>
        <time>2012-04-28T05:23:15Z</time>
      </trkpt>
      <trkpt lat="59.8487545" lon="17.7757775">
        <ele>21.2864</ele>
        <time>2012-04-28T05:23:25Z</time>
      </trkpt>
      <trkpt lat="59.8486825" lon="17.7749525">
        <ele>19.8444</ele>
        <time>2012-04-28T05:23:31Z</time>
      </trkpt>
      <trkpt lat="59.8485473" lon="17.7737155">
        <ele>17.4412</ele>
        <time>2012-04-28T05:23:39Z</time>
      </trkpt>
      <trkpt lat="59.8483943" lon="17.7724065">
        <ele>14.557</ele>
        <time>2012-04-28T05:23:47Z</time>
      </trkpt>
      <trkpt lat="59.8481997" lon="17.7713182">
        <ele>13.1151</ele>
        <time>2012-04-28T05:23:54Z</time>
      </trkpt>
      <trkpt lat="59.8480907" lon="17.7704163">
        <ele>12.6344</ele>
        <time>2012-04-28T05:24:00Z</time>
      </trkpt>
      <trkpt lat="59.8479379" lon="17.7697605">
        <ele>12.6344</ele>
        <time>2012-04-28T05:24:05Z</time>
      </trkpt>
      <trkpt lat="59.847904" lon="17.7696393">
        <ele>13.1151</ele>
        <time>2012-04-28T05:24:06Z</time>
      </trkpt>
      <trkpt lat="59.8477564" lon="17.7687473">
        <ele>13.1151</ele>
        <time>2012-04-28T05:24:13Z</time>
      </trkpt>
      <trkpt lat="59.8476009" lon="17.7677801">
        <ele>13.1151</ele>
        <time>2012-04-28T05:24:21Z</time>
      </trkpt>
      <trkpt lat="59.8474511" lon="17.7668801">
        <ele>13.5958</ele>
        <time>2012-04-28T05:24:29Z</time>
      </trkpt>
      <trkpt lat="59.8472834" lon="17.76584">
        <ele>14.0764</ele>
        <time>2012-04-28T05:24:39Z</time>
      </trkpt>
      <trkpt lat="59.8472655" lon="17.7657377">
        <ele>14.0764</ele>
        <time>2012-04-28T05:24:40Z</time>
      </trkpt>
      <trkpt lat="59.8472351" lon="17.7655292">
        <ele>14.0764</ele>
        <time>2012-04-28T05:24:42Z</time>
      </trkpt>
      <trkpt lat="59.8472816" lon="17.7651147">
        <ele>14.0764</ele>
        <time>2012-04-28T05:24:46Z</time>
      </trkpt>
      <trkpt lat="59.8473185" lon="17.7650299">
        <ele>14.0764</ele>
        <time>2012-04-28T05:24:47Z</time>
      </trkpt>
      <trkpt lat="59.84775" lon="17.7641261">
        <ele>14.0764</ele>
        <time>2012-04-28T05:24:58Z</time>
      </trkpt>
      <trkpt lat="59.8481001" lon="17.763396">
        <ele>14.557</ele>
        <time>2012-04-28T05:25:07Z</time>
      </trkpt>
      <trkpt lat="59.8482932" lon="17.7629831">
        <ele>15.0377</ele>
        <time>2012-04-28T05:25:12Z</time>
      </trkpt>
      <trkpt lat="59.8483746" lon="17.7625744">
        <ele>15.5184</ele>
        <time>2012-04-28T05:25:16Z</time>
      </trkpt>
      <trkpt lat="59.84841" lon="17.7615872">
        <ele>15.999</ele>
        <time>2012-04-28T05:25:25Z</time>
      </trkpt>
      <trkpt lat="59.8484411" lon="17.7602341">
        <ele>16.4797</ele>
        <time>2012-04-28T05:25:37Z</time>
      </trkpt>
      <trkpt lat="59.8484628" lon="17.7593721">
        <ele>16.9604</ele>
        <time>2012-04-28T05:25:45Z</time>
      </trkpt>
      <trkpt lat="59.8484862" lon="17.7584617">
        <ele>17.9218</ele>
        <time>2012-04-28T05:25:54Z</time>
      </trkpt>
      <trkpt lat="59.8485098" lon="17.7573057">
        <ele>18.4023</ele>
        <time>2012-04-28T05:26:06Z</time>
      </trkpt>
      <trkpt lat="59.848481" lon="17.7561781">
        <ele>18.8831</ele>
        <time>2012-04-28T05:26:17Z</time>
      </trkpt>
      <trkpt lat="59.8484053" lon="17.7551791">
        <ele>19.3638</ele>
        <time>2012-04-28T05:26:27Z</time>
      </trkpt>
      <trkpt lat="59.8483002" lon="17.754258">
        <ele>19.8444</ele>
        <time>2012-04-28T05:26:37Z</time>
      </trkpt>
      <trkpt lat="59.8481542" lon="17.7531002">
        <ele>21.767</ele>
        <time>2012-04-28T05:26:50Z</time>
      </trkpt>
      <trkpt lat="59.8480695" lon="17.7524197">
        <ele>23.209</ele>
        <time>2012-04-28T05:26:59Z</time>
      </trkpt>
      <trkpt lat="59.8479974" lon="17.7518877">
        <ele>24.1703</ele>
        <time>2012-04-28T05:27:07Z</time>
      </trkpt>
      <trkpt lat="59.8479122" lon="17.7510914">
        <ele>25.6123</ele>
        <time>2012-04-28T05:27:18Z</time>
      </trkpt>
      <trkpt lat="59.8478542" lon="17.7504474">
        <ele>26.5736</ele>
        <time>2012-04-28T05:27:26Z</time>
      </trkpt>
      <trkpt lat="59.8478164" lon="17.7499818">
        <ele>27.0543</ele>
        <time>2012-04-28T05:27:31Z</time>
      </trkpt>
      <trkpt lat="59.8477884" lon="17.749152">
        <ele>26.5736</ele>
        <time>2012-04-28T05:27:39Z</time>
      </trkpt>
      <trkpt lat="59.8477605" lon="17.7477849">
        <ele>26.0929</ele>
        <time>2012-04-28T05:27:51Z</time>
      </trkpt>
      <trkpt lat="59.8477712" lon="17.7468199">
        <ele>24.651</ele>
        <time>2012-04-28T05:27:59Z</time>
      </trkpt>
      <trkpt lat="59.8477859" lon="17.7458274">
        <ele>23.6896</ele>
        <time>2012-04-28T05:28:06Z</time>
      </trkpt>
      <trkpt lat="59.8478122" lon="17.7439882">
        <ele>23.209</ele>
        <time>2012-04-28T05:28:18Z</time>
      </trkpt>
      <trkpt lat="59.8478317" lon="17.7426844">
        <ele>23.209</ele>
        <time>2012-04-28T05:28:27Z</time>
      </trkpt>
      <trkpt lat="59.8478553" lon="17.7410871">
        <ele>23.209</ele>
        <time>2012-04-28T05:28:39Z</time>
      </trkpt>
      <trkpt lat="59.8478734" lon="17.739837">
        <ele>23.6896</ele>
        <time>2012-04-28T05:28:49Z</time>
      </trkpt>
      <trkpt lat="59.8478837" lon="17.7391806">
        <ele>23.6896</ele>
        <time>2012-04-28T05:28:55Z</time>
      </trkpt>
      <trkpt lat="59.8479971" lon="17.7388449">
        <ele>23.209</ele>
        <time>2012-04-28T05:28:59Z</time>
      </trkpt>
      <trkpt lat="59.8480536" lon="17.7388102">
        <ele>23.209</ele>
        <time>2012-04-28T05:29:00Z</time>
      </trkpt>
      <trkpt lat="59.8485953" lon="17.7385742">
        <ele>22.7283</ele>
        <time>2012-04-28T05:29:09Z</time>
      </trkpt>
      <trkpt lat="59.8493031" lon="17.7382292">
        <ele>22.2476</ele>
        <time>2012-04-28T05:29:20Z</time>
      </trkpt>
      <trkpt lat="59.8499788" lon="17.737967">
        <ele>21.767</ele>
        <time>2012-04-28T05:29:30Z</time>
      </trkpt>
      <trkpt lat="59.850485" lon="17.7376905">
        <ele>21.2864</ele>
        <time>2012-04-28T05:29:37Z</time>
      </trkpt>
      <trkpt lat="59.8509313" lon="17.7373527">
        <ele>20.325</ele>
        <time>2012-04-28T05:29:43Z</time>
      </trkpt>
      <trkpt lat="59.8515035" lon="17.7368234">
        <ele>19.3638</ele>
        <time>2012-04-28T05:29:51Z</time>
      </trkpt>
      <trkpt lat="59.8518801" lon="17.7362524">
        <ele>18.8831</ele>
        <time>2012-04-28T05:29:57Z</time>
      </trkpt>
      <trkpt lat="59.852332" lon="17.7356204">
        <ele>18.8831</ele>
        <time>2012-04-28T05:30:04Z</time>
      </trkpt>
      <trkpt lat="59.8531399" lon="17.7346731">
        <ele>18.8831</ele>
        <time>2012-04-28T05:30:16Z</time>
      </trkpt>
      <trkpt lat="59.853514" lon="17.7341315">
        <ele>16.9604</ele>
        <time>2012-04-28T05:30:22Z</time>
      </trkpt>
      <trkpt lat="59.8537201" lon="17.7335897">
        <ele>15.5184</ele>
        <time>2012-04-28T05:30:26Z</time>
      </trkpt>
      <trkpt lat="59.8538548" lon="17.7328998">
        <ele>13.5958</ele>
        <time>2012-04-28T05:30:30Z</time>
      </trkpt>
      <trkpt lat="59.8539644" lon="17.7318686">
        <ele>12.6344</ele>
        <time>2012-04-28T05:30:36Z</time>
      </trkpt>
      <trkpt lat="59.8540691" lon="17.730968">
        <ele>15.0377</ele>
        <time>2012-04-28T05:30:42Z</time>
      </trkpt>
      <trkpt lat="59.8541873" lon="17.7304269">
        <ele>16.4797</ele>
        <time>2012-04-28T05:30:47Z</time>
      </trkpt>
      <trkpt lat="59.8543713" lon="17.7298768">
        <ele>18.8831</ele>
        <time>2012-04-28T05:30:54Z</time>
      </trkpt>
      <trkpt lat="59.8546323" lon="17.7292019">
        <ele>19.8444</ele>
        <time>2012-04-28T05:31:03Z</time>
      </trkpt>
      <trkpt lat="59.8549208" lon="17.728458">
        <ele>20.325</ele>
        <time>2012-04-28T05:31:11Z</time>
      </trkpt>
      <trkpt lat="59.8552744" lon="17.7275296">
        <ele>20.325</ele>
        <time>2012-04-28T05:31:20Z</time>
      </trkpt>
      <trkpt lat="59.8556633" lon="17.7264207">
        <ele>19.8444</ele>
        <time>2012-04-28T05:31:30Z</time>
      </trkpt>
      <trkpt lat="59.8558898" lon="17.7257831">
        <ele>19.8444</ele>
        <time>2012-04-28T05:31:36Z</time>
      </trkpt>
      <trkpt lat="59.8562174" lon="17.7249827">
        <ele>20.325</ele>
        <time>2012-04-28T05:31:44Z</time>
      </trkpt>
      <trkpt lat="59.8566584" lon="17.7239342">
        <ele>21.2864</ele>
        <time>2012-04-28T05:31:55Z</time>
      </trkpt>
      <trkpt lat="59.8569979" lon="17.723256">
        <ele>22.7283</ele>
        <time>2012-04-28T05:32:04Z</time>
      </trkpt>
      <trkpt lat="59.8572902" lon="17.722769">
        <ele>23.209</ele>
        <time>2012-04-28T05:32:12Z</time>
      </trkpt>
      <trkpt lat="59.8575582" lon="17.7222926">
        <ele>22.7283</ele>
        <time>2012-04-28T05:32:19Z</time>
      </trkpt>
      <trkpt lat="59.8575927" lon="17.7222164">
        <ele>23.209</ele>
        <time>2012-04-28T05:32:20Z</time>
      </trkpt>
      <trkpt lat="59.8576792" lon="17.7219576">
        <ele>22.7283</ele>
        <time>2012-04-28T05:32:23Z</time>
      </trkpt>
      <trkpt lat="59.8577562" lon="17.7213053">
        <ele>22.2476</ele>
        <time>2012-04-28T05:32:29Z</time>
      </trkpt>
      <trkpt lat="59.8577544" lon="17.7202491">
        <ele>19.8444</ele>
        <time>2012-04-28T05:32:37Z</time>
      </trkpt>
      <trkpt lat="59.8577021" lon="17.718782">
        <ele>19.8444</ele>
        <time>2012-04-28T05:32:47Z</time>
      </trkpt>
      <trkpt lat="59.8577179" lon="17.7177077">
        <ele>20.8057</ele>
        <time>2012-04-28T05:32:55Z</time>
      </trkpt>
      <trkpt lat="59.8576901" lon="17.7166691">
        <ele>21.2864</ele>
        <time>2012-04-28T05:33:03Z</time>
      </trkpt>
      <trkpt lat="59.8576927" lon="17.7157403">
        <ele>21.767</ele>
        <time>2012-04-28T05:33:10Z</time>
      </trkpt>
      <trkpt lat="59.8578241" lon="17.7149684">
        <ele>22.2476</ele>
        <time>2012-04-28T05:33:16Z</time>
      </trkpt>
      <trkpt lat="59.8580306" lon="17.714279">
        <ele>22.2476</ele>
        <time>2012-04-28T05:33:22Z</time>
      </trkpt>
      <trkpt lat="59.8582272" lon="17.7135779">
        <ele>22.7283</ele>
        <time>2012-04-28T05:33:28Z</time>
      </trkpt>
      <trkpt lat="59.8583307" lon="17.7126483">
        <ele>23.209</ele>
        <time>2012-04-28T05:33:35Z</time>
      </trkpt>
      <trkpt lat="59.8584427" lon="17.7120788">
        <ele>23.6896</ele>
        <time>2012-04-28T05:33:40Z</time>
      </trkpt>
      <trkpt lat="59.8585524" lon="17.7115297">
        <ele>24.1703</ele>
        <time>2012-04-28T05:33:45Z</time>
      </trkpt>
      <trkpt lat="59.8585708" lon="17.7109389">
        <ele>23.6896</ele>
        <time>2012-04-28T05:33:50Z</time>
      </trkpt>
      <trkpt lat="59.8584607" lon="17.7101558">
        <ele>23.209</ele>
        <time>2012-04-28T05:33:57Z</time>
      </trkpt>
      <trkpt lat="59.8583832" lon="17.7095843">
        <ele>22.2476</ele>
        <time>2012-04-28T05:34:02Z</time>
      </trkpt>
      <trkpt lat="59.858376" lon="17.7089123">
        <ele>21.2864</ele>
        <time>2012-04-28T05:34:07Z</time>
      </trkpt>
      <trkpt lat="59.8584651" lon="17.7080712">
        <ele>19.8444</ele>
        <time>2012-04-28T05:34:13Z</time>
      </trkpt>
      <trkpt lat="59.8585639" lon="17.7071709">
        <ele>18.8831</ele>
        <time>2012-04-28T05:34:19Z</time>
      </trkpt>
      <trkpt lat="59.8587467" lon="17.7058318">
        <ele>17.9218</ele>
        <time>2012-04-28T05:34:28Z</time>
      </trkpt>
      <trkpt lat="59.858867" lon="17.7051532">
        <ele>18.4023</ele>
        <time>2012-04-28T05:34:33Z</time>
      </trkpt>
      <trkpt lat="59.859038" lon="17.7047342">
        <ele>18.4023</ele>
        <time>2012-04-28T05:34:37Z</time>
      </trkpt>
      <trkpt lat="59.8591547" lon="17.7045766">
        <ele>18.4023</ele>
        <time>2012-04-28T05:34:39Z</time>
      </trkpt>
      <trkpt lat="59.859499" lon="17.7043576">
        <ele>17.9218</ele>
        <time>2012-04-28T05:34:44Z</time>
      </trkpt>
      <trkpt lat="59.8602132" lon="17.7040534">
        <ele>16.9604</ele>
        <time>2012-04-28T05:34:54Z</time>
      </trkpt>
      <trkpt lat="59.8608332" lon="17.7037625">
        <ele>17.9218</ele>
        <time>2012-04-28T05:35:03Z</time>
      </trkpt>
      <trkpt lat="59.8611871" lon="17.7037738">
        <ele>17.9218</ele>
        <time>2012-04-28T05:35:08Z</time>
      </trkpt>
      <trkpt lat="59.8618206" lon="17.7040141">
        <ele>17.4412</ele>
        <time>2012-04-28T05:35:17Z</time>
      </trkpt>
      <trkpt lat="59.8624702" lon="17.704252">
        <ele>16.4797</ele>
        <time>2012-04-28T05:35:26Z</time>
      </trkpt>
      <trkpt lat="59.8628949" lon="17.7044206">
        <ele>15.999</ele>
        <time>2012-04-28T05:35:32Z</time>
      </trkpt>
      <trkpt lat="59.8632411" lon="17.7042823">
        <ele>16.4797</ele>
        <time>2012-04-28T05:35:37Z</time>
      </trkpt>
      <trkpt lat="59.8637851" lon="17.7036238">
        <ele>16.4797</ele>
        <time>2012-04-28T05:35:46Z</time>
      </trkpt>
      <trkpt lat="59.8641605" lon="17.703167">
        <ele>16.4797</ele>
        <time>2012-04-28T05:35:53Z</time>
      </trkpt>
      <trkpt lat="59.8644336" lon="17.7028491">
        <ele>16.9604</ele>
        <time>2012-04-28T05:35:59Z</time>
      </trkpt>
      <trkpt lat="59.8647673" lon="17.7024296">
        <ele>17.4412</ele>
        <time>2012-04-28T05:36:06Z</time>
      </trkpt>
      <trkpt lat="59.8651734" lon="17.7017836">
        <ele>19.3638</ele>
        <time>2012-04-28T05:36:15Z</time>
      </trkpt>
      <trkpt lat="59.8653566" lon="17.7014226">
        <ele>20.8057</ele>
        <time>2012-04-28T05:36:20Z</time>
      </trkpt>
      <trkpt lat="59.8655681" lon="17.7007424">
        <ele>22.7283</ele>
        <time>2012-04-28T05:36:28Z</time>
      </trkpt>
      <trkpt lat="59.8657657" lon="17.7001871">
        <ele>23.6896</ele>
        <time>2012-04-28T05:36:35Z</time>
      </trkpt>
      <trkpt lat="59.866082" lon="17.6994422">
        <ele>24.651</ele>
        <time>2012-04-28T05:36:44Z</time>
      </trkpt>
      <trkpt lat="59.8661638" lon="17.6992809">
        <ele>24.651</ele>
        <time>2012-04-28T05:36:46Z</time>
      </trkpt>
      <trkpt lat="59.8665159" lon="17.6988463">
        <ele>24.651</ele>
        <time>2012-04-28T05:36:53Z</time>
      </trkpt>
      <trkpt lat="59.8668553" lon="17.6983471">
        <ele>23.209</ele>
        <time>2012-04-28T05:36:59Z</time>
      </trkpt>
      <trkpt lat="59.8671625" lon="17.69787">
        <ele>22.7283</ele>
        <time>2012-04-28T05:37:04Z</time>
      </trkpt>
      <trkpt lat="59.8674912" lon="17.6975913">
        <ele>22.7283</ele>
        <time>2012-04-28T05:37:09Z</time>
      </trkpt>
      <trkpt lat="59.8676937" lon="17.697481">
        <ele>23.209</ele>
        <time>2012-04-28T05:37:12Z</time>
      </trkpt>
      <trkpt lat="59.8681243" lon="17.6969967">
        <ele>23.209</ele>
        <time>2012-04-28T05:37:19Z</time>
      </trkpt>
      <trkpt lat="59.8685718" lon="17.6965696">
        <ele>22.7283</ele>
        <time>2012-04-28T05:37:26Z</time>
      </trkpt>
      <trkpt lat="59.8690085" lon="17.6961053">
        <ele>22.2476</ele>
        <time>2012-04-28T05:37:33Z</time>
      </trkpt>
      <trkpt lat="59.8693957" lon="17.6955605">
        <ele>21.767</ele>
        <time>2012-04-28T05:37:39Z</time>
      </trkpt>
      <trkpt lat="59.869821" lon="17.6950529">
        <ele>21.2864</ele>
        <time>2012-04-28T05:37:46Z</time>
      </trkpt>
      <trkpt lat="59.8703057" lon="17.694537">
        <ele>21.2864</ele>
        <time>2012-04-28T05:37:54Z</time>
      </trkpt>
      <trkpt lat="59.8708032" lon="17.693973">
        <ele>21.2864</ele>
        <time>2012-04-28T05:38:02Z</time>
      </trkpt>
      <trkpt lat="59.8711973" lon="17.6933673">
        <ele>20.8057</ele>
        <time>2012-04-28T05:38:09Z</time>
      </trkpt>
      <trkpt lat="59.8715919" lon="17.6925224">
        <ele>20.8057</ele>
        <time>2012-04-28T05:38:17Z</time>
      </trkpt>
      <trkpt lat="59.8719152" lon="17.6918449">
        <ele>20.8057</ele>
        <time>2012-04-28T05:38:24Z</time>
      </trkpt>
      <trkpt lat="59.8722973" lon="17.6910204">
        <ele>21.2864</ele>
        <time>2012-04-28T05:38:33Z</time>
      </trkpt>
      <trkpt lat="59.8725202" lon="17.6904314">
        <ele>21.767</ele>
        <time>2012-04-28T05:38:39Z</time>
      </trkpt>
      <trkpt lat="59.8727466" lon="17.6897113">
        <ele>23.209</ele>
        <time>2012-04-28T05:38:46Z</time>
      </trkpt>
      <trkpt lat="59.8730262" lon="17.6890805">
        <ele>23.209</ele>
        <time>2012-04-28T05:38:53Z</time>
      </trkpt>
      <trkpt lat="59.8731148" lon="17.6888975">
        <ele>23.6896</ele>
        <time>2012-04-28T05:38:55Z</time>
      </trkpt>
      <trkpt lat="59.8736547" lon="17.6882671">
        <ele>25.1317</ele>
        <time>2012-04-28T05:39:05Z</time>
      </trkpt>
      <trkpt lat="59.873879" lon="17.6880402">
        <ele>25.1317</ele>
        <time>2012-04-28T05:39:09Z</time>
      </trkpt>
      <trkpt lat="59.8739602" lon="17.6876643">
        <ele>25.1317</ele>
        <time>2012-04-28T05:39:13Z</time>
      </trkpt>
      <trkpt lat="59.8740575" lon="17.68726">
        <ele>25.1317</ele>
        <time>2012-04-28T05:39:17Z</time>
      </trkpt>
      <trkpt lat="59.8744514" lon="17.6864337">
        <ele>25.1317</ele>
        <time>2012-04-28T05:39:26Z</time>
      </trkpt>
      <trkpt lat="59.8749044" lon="17.6854672">
        <ele>26.0929</ele>
        <time>2012-04-28T05:39:36Z</time>
      </trkpt>
      <trkpt lat="59.8753298" lon="17.6845435">
        <ele>27.0543</ele>
        <time>2012-04-28T05:39:46Z</time>
      </trkpt>
      <trkpt lat="59.8757215" lon="17.6836989">
        <ele>28.0155</ele>
        <time>2012-04-28T05:39:56Z</time>
      </trkpt>
      <trkpt lat="59.8761023" lon="17.6828622">
        <ele>28.4962</ele>
        <time>2012-04-28T05:40:07Z</time>
      </trkpt>
      <trkpt lat="59.8764261" lon="17.6821551">
        <ele>28.9769</ele>
        <time>2012-04-28T05:40:16Z</time>
      </trkpt>
      <trkpt lat="59.8768218" lon="17.6813093">
        <ele>28.9769</ele>
        <time>2012-04-28T05:40:26Z</time>
      </trkpt>
      <trkpt lat="59.8772353" lon="17.6802886">
        <ele>29.4575</ele>
        <time>2012-04-28T05:40:37Z</time>
      </trkpt>
      <trkpt lat="59.8773951" lon="17.6797705">
        <ele>29.9381</ele>
        <time>2012-04-28T05:40:42Z</time>
      </trkpt>
      <trkpt lat="59.8775557" lon="17.6793372">
        <ele>29.4575</ele>
        <time>2012-04-28T05:40:46Z</time>
      </trkpt>
      <trkpt lat="59.8778921" lon="17.6788102">
        <ele>29.4575</ele>
        <time>2012-04-28T05:40:52Z</time>
      </trkpt>
      <trkpt lat="59.8781399" lon="17.6783354">
        <ele>28.9769</ele>
        <time>2012-04-28T05:40:57Z</time>
      </trkpt>
      <trkpt lat="59.8782152" lon="17.6779991">
        <ele>28.0155</ele>
        <time>2012-04-28T05:41:00Z</time>
      </trkpt>
      <trkpt lat="59.8781992" lon="17.6775868">
        <ele>26.5736</ele>
        <time>2012-04-28T05:41:03Z</time>
      </trkpt>
      <trkpt lat="59.8781567" lon="17.6771584">
        <ele>24.651</ele>
        <time>2012-04-28T05:41:06Z</time>
      </trkpt>
      <trkpt lat="59.8779882" lon="17.6767236">
        <ele>23.209</ele>
        <time>2012-04-28T05:41:09Z</time>
      </trkpt>
      <trkpt lat="59.8778983" lon="17.6764125">
        <ele>22.2476</ele>
        <time>2012-04-28T05:41:11Z</time>
      </trkpt>
      <trkpt lat="59.8777908" lon="17.6757271">
        <ele>24.1703</ele>
        <time>2012-04-28T05:41:16Z</time>
      </trkpt>
      <trkpt lat="59.8777525" lon="17.6755008">
        <ele>24.651</ele>
        <time>2012-04-28T05:41:18Z</time>
      </trkpt>
      <trkpt lat="59.8778464" lon="17.675238">
        <ele>25.1317</ele>
        <time>2012-04-28T05:41:22Z</time>
      </trkpt>
      <trkpt lat="59.8779111" lon="17.6752123">
        <ele>25.6123</ele>
        <time>2012-04-28T05:41:23Z</time>
      </trkpt>
      <trkpt lat="59.8783938" lon="17.6747173">
        <ele>25.6123</ele>
        <time>2012-04-28T05:41:32Z</time>
      </trkpt>
      <trkpt lat="59.8784446" lon="17.6746606">
        <ele>25.6123</ele>
        <time>2012-04-28T05:41:33Z</time>
      </trkpt>
      <trkpt lat="59.8785012" lon="17.6744399">
        <ele>25.1317</ele>
        <time>2012-04-28T05:41:36Z</time>
      </trkpt>
      <trkpt lat="59.8784632" lon="17.6742316">
        <ele>25.6123</ele>
        <time>2012-04-28T05:41:39Z</time>
      </trkpt>
      <trkpt lat="59.8783938" lon="17.6741316">
        <ele>25.1317</ele>
        <time>2012-04-28T05:41:43Z</time>
      </trkpt>
      <trkpt lat="59.8783801" lon="17.6741654">
        <ele>24.651</ele>
        <time>2012-04-28T05:41:45Z</time>
      </trkpt>
      <trkpt lat="59.8781309" lon="17.6744697">
        <ele>32.8223</ele>
        <time>2012-04-28T10:33:44Z</time>
      </trkpt>
      <trkpt lat="59.8781364" lon="17.6744832">
        <ele>32.3416</ele>
        <time>2012-04-28T10:33:46Z</time>
      </trkpt>
      <trkpt lat="59.8782122" lon="17.674447">
        <ele>30.8995</ele>
        <time>2012-04-28T10:33:52Z</time>
      </trkpt>
      <trkpt lat="59.8782265" lon="17.6744307">
        <ele>30.8995</ele>
        <time>2012-04-28T10:33:53Z</time>
      </trkpt>
      <trkpt lat="59.8783701" lon="17.6743296">
        <ele>30.8995</ele>
        <time>2012-04-28T10:33:59Z</time>
      </trkpt>
      <trkpt lat="59.878393" lon="17.6742858">
        <ele>30.4188</ele>
        <time>2012-04-28T10:34:04Z</time>
      </trkpt>
      <trkpt lat="59.8784046" lon="17.6742767">
        <ele>29.9381</ele>
        <time>2012-04-28T10:34:05Z</time>
      </trkpt>
      <trkpt lat="59.8784762" lon="17.6742803">
        <ele>28.9769</ele>
        <time>2012-04-28T10:34:09Z</time>
      </trkpt>
      <trkpt lat="59.8786543" lon="17.6742113">
        <ele>28.9769</ele>
        <time>2012-04-28T10:34:15Z</time>
      </trkpt>
      <trkpt lat="59.8787711" lon="17.6742228">
        <ele>28.9769</ele>
        <time>2012-04-28T10:34:18Z</time>
      </trkpt>
      <trkpt lat="59.8788077" lon="17.6742586">
        <ele>28.9769</ele>
        <time>2012-04-28T10:34:19Z</time>
      </trkpt>
      <trkpt lat="59.8789067" lon="17.6745868">
        <ele>28.4962</ele>
        <time>2012-04-28T10:34:23Z</time>
      </trkpt>
      <trkpt lat="59.8789216" lon="17.6746963">
        <ele>28.0155</ele>
        <time>2012-04-28T10:34:24Z</time>
      </trkpt>
      <trkpt lat="59.8789617" lon="17.675057">
        <ele>28.0155</ele>
        <time>2012-04-28T10:34:27Z</time>
      </trkpt>
      <trkpt lat="59.8790094" lon="17.6756143">
        <ele>28.0155</ele>
        <time>2012-04-28T10:34:32Z</time>
      </trkpt>
      <trkpt lat="59.8791395" lon="17.6756913">
        <ele>27.5349</ele>
        <time>2012-04-28T10:34:35Z</time>
      </trkpt>
      <trkpt lat="59.8792548" lon="17.6755003">
        <ele>27.0543</ele>
        <time>2012-04-28T10:34:38Z</time>
      </trkpt>
      <trkpt lat="59.8794712" lon="17.6751204">
        <ele>26.0929</ele>
        <time>2012-04-28T10:34:43Z</time>
      </trkpt>
      <trkpt lat="59.8800413" lon="17.6745098">
        <ele>25.1317</ele>
        <time>2012-04-28T10:34:53Z</time>
      </trkpt>
      <trkpt lat="59.8804882" lon="17.6740711">
        <ele>24.651</ele>
        <time>2012-04-28T10:35:00Z</time>
      </trkpt>
      <trkpt lat="59.8811539" lon="17.6734646">
        <ele>24.651</ele>
        <time>2012-04-28T10:35:10Z</time>
      </trkpt>
      <trkpt lat="59.881575" lon="17.6731094">
        <ele>24.1703</ele>
        <time>2012-04-28T10:35:17Z</time>
      </trkpt>
      <trkpt lat="59.8821241" lon="17.6726491">
        <ele>24.1703</ele>
        <time>2012-04-28T10:35:26Z</time>
      </trkpt>
      <trkpt lat="59.8825292" lon="17.6723088">
        <ele>23.6896</ele>
        <time>2012-04-28T10:35:33Z</time>
      </trkpt>
      <trkpt lat="59.8829916" lon="17.6719111">
        <ele>23.6896</ele>
        <time>2012-04-28T10:35:41Z</time>
      </trkpt>
      <trkpt lat="59.8835041" lon="17.6713778">
        <ele>23.209</ele>
        <time>2012-04-28T10:35:50Z</time>
      </trkpt>
      <trkpt lat="59.8836114" lon="17.6712501">
        <ele>23.209</ele>
        <time>2012-04-28T10:35:52Z</time>
      </trkpt>
      <trkpt lat="59.8837977" lon="17.6711463">
        <ele>23.209</ele>
        <time>2012-04-28T10:35:55Z</time>
      </trkpt>
      <trkpt lat="59.8840062" lon="17.6709382">
        <ele>22.7283</ele>
        <time>2012-04-28T10:35:59Z</time>
      </trkpt>
      <trkpt lat="59.88409" lon="17.6705341">
        <ele>23.209</ele>
        <time>2012-04-28T10:36:03Z</time>
      </trkpt>
      <trkpt lat="59.8841865" lon="17.6702609">
        <ele>23.209</ele>
        <time>2012-04-28T10:36:06Z</time>
      </trkpt>
      <trkpt lat="59.8845446" lon="17.6694686">
        <ele>22.7283</ele>
        <time>2012-04-28T10:36:15Z</time>
      </trkpt>
      <trkpt lat="59.8848037" lon="17.6687005">
        <ele>22.2476</ele>
        <time>2012-04-28T10:36:23Z</time>
      </trkpt>
      <trkpt lat="59.8849141" lon="17.6682873">
        <ele>22.2476</ele>
        <time>2012-04-28T10:36:27Z</time>
      </trkpt>
      <trkpt lat="59.8850773" lon="17.6679394">
        <ele>22.7283</ele>
        <time>2012-04-28T10:36:31Z</time>
      </trkpt>
      <trkpt lat="59.8851943" lon="17.6675374">
        <ele>23.209</ele>
        <time>2012-04-28T10:36:35Z</time>
      </trkpt>
      <trkpt lat="59.8851737" lon="17.6672971">
        <ele>23.209</ele>
        <time>2012-04-28T10:36:37Z</time>
      </trkpt>
      <trkpt lat="59.8851771" lon="17.6665982">
        <ele>24.651</ele>
        <time>2012-04-28T10:36:43Z</time>
      </trkpt>
      <trkpt lat="59.8852804" lon="17.6656488">
        <ele>25.6123</ele>
        <time>2012-04-28T10:36:52Z</time>
      </trkpt>
      <trkpt lat="59.8853337" lon="17.6653483">
        <ele>26.0929</ele>
        <time>2012-04-28T10:36:55Z</time>
      </trkpt>
      <trkpt lat="59.8855143" lon="17.6649467">
        <ele>25.6123</ele>
        <time>2012-04-28T10:37:00Z</time>
      </trkpt>
      <trkpt lat="59.8856258" lon="17.6648877">
        <ele>25.1317</ele>
        <time>2012-04-28T10:37:03Z</time>
      </trkpt>
      <trkpt lat="59.8857415" lon="17.6648919">
        <ele>25.1317</ele>
        <time>2012-04-28T10:37:07Z</time>
      </trkpt>
      <trkpt lat="59.8860283" lon="17.6649541">
        <ele>25.1317</ele>
        <time>2012-04-28T10:37:13Z</time>
      </trkpt>
      <trkpt lat="59.8862571" lon="17.6646211">
        <ele>25.1317</ele>
        <time>2012-04-28T10:37:18Z</time>
      </trkpt>
      <trkpt lat="59.8863431" lon="17.6643071">
        <ele>25.6123</ele>
        <time>2012-04-28T10:37:21Z</time>
      </trkpt>
      <trkpt lat="59.8865951" lon="17.6635757">
        <ele>26.0929</ele>
        <time>2012-04-28T10:37:29Z</time>
      </trkpt>
      <trkpt lat="59.8868608" lon="17.6630184">
        <ele>26.0929</ele>
        <time>2012-04-28T10:37:37Z</time>
      </trkpt>
      <trkpt lat="59.8870505" lon="17.6624524">
        <ele>27.5349</ele>
        <time>2012-04-28T10:37:44Z</time>
      </trkpt>
      <trkpt lat="59.8871187" lon="17.6621087">
        <ele>28.0155</ele>
        <time>2012-04-28T10:37:48Z</time>
      </trkpt>
      <trkpt lat="59.8871585" lon="17.6615709">
        <ele>28.9769</ele>
        <time>2012-04-28T10:37:54Z</time>
      </trkpt>
      <trkpt lat="59.8872665" lon="17.6612006">
        <ele>29.4575</ele>
        <time>2012-04-28T10:37:59Z</time>
      </trkpt>
      <trkpt lat="59.8875608" lon="17.6608702">
        <ele>28.4962</ele>
        <time>2012-04-28T10:38:06Z</time>
      </trkpt>
      <trkpt lat="59.8876942" lon="17.6607225">
        <ele>28.0155</ele>
        <time>2012-04-28T10:38:09Z</time>
      </trkpt>
      <trkpt lat="59.8879376" lon="17.6602055">
        <ele>28.0155</ele>
        <time>2012-04-28T10:38:16Z</time>
      </trkpt>
      <trkpt lat="59.8881702" lon="17.6595611">
        <ele>27.0543</ele>
        <time>2012-04-28T10:38:24Z</time>
      </trkpt>
      <trkpt lat="59.8884294" lon="17.6588493">
        <ele>26.5736</ele>
        <time>2012-04-28T10:38:33Z</time>
      </trkpt>
      <trkpt lat="59.8887758" lon="17.6579392">
        <ele>28.4962</ele>
        <time>2012-04-28T10:38:45Z</time>
      </trkpt>
      <trkpt lat="59.8891779" lon="17.6568634">
        <ele>29.4575</ele>
        <time>2012-04-28T10:38:59Z</time>
      </trkpt>
      <trkpt lat="59.8895115" lon="17.6559645">
        <ele>30.4188</ele>
        <time>2012-04-28T10:39:10Z</time>
      </trkpt>
      <trkpt lat="59.8898371" lon="17.6550886">
        <ele>31.3801</ele>
        <time>2012-04-28T10:39:21Z</time>
      </trkpt>
      <trkpt lat="59.8901472" lon="17.6542401">
        <ele>31.8607</ele>
        <time>2012-04-28T10:39:32Z</time>
      </trkpt>
      <trkpt lat="59.8904121" lon="17.6535158">
        <ele>32.8223</ele>
        <time>2012-04-28T10:39:41Z</time>
      </trkpt>
      <trkpt lat="59.8906899" lon="17.6527612">
        <ele>33.7834</ele>
        <time>2012-04-28T10:39:50Z</time>
      </trkpt>
      <trkpt lat="59.8910024" lon="17.6518996">
        <ele>33.7834</ele>
        <time>2012-04-28T10:40:00Z</time>
      </trkpt>
      <trkpt lat="59.8911208" lon="17.6515609">
        <ele>33.7834</ele>
        <time>2012-04-28T10:40:04Z</time>
      </trkpt>
      <trkpt lat="59.8912358" lon="17.6513878">
        <ele>33.3029</ele>
        <time>2012-04-28T10:40:07Z</time>
      </trkpt>
      <trkpt lat="59.8913404" lon="17.651105">
        <ele>32.8223</ele>
        <time>2012-04-28T10:40:11Z</time>
      </trkpt>
      <trkpt lat="59.8913555" lon="17.6510191">
        <ele>32.8223</ele>
        <time>2012-04-28T10:40:12Z</time>
      </trkpt>
      <trkpt lat="59.891525" lon="17.6503887">
        <ele>32.8223</ele>
        <time>2012-04-28T10:40:20Z</time>
      </trkpt>
      <trkpt lat="59.8917129" lon="17.6497049">
        <ele>32.8223</ele>
        <time>2012-04-28T10:40:29Z</time>
      </trkpt>
      <trkpt lat="59.8918731" lon="17.6489168">
        <ele>33.3029</ele>
        <time>2012-04-28T10:40:38Z</time>
      </trkpt>
      <trkpt lat="59.8920099" lon="17.6481004">
        <ele>33.3029</ele>
        <time>2012-04-28T10:40:47Z</time>
      </trkpt>
      <trkpt lat="59.892128" lon="17.6472957">
        <ele>32.3416</ele>
        <time>2012-04-28T10:40:55Z</time>
      </trkpt>
      <trkpt lat="59.8921426" lon="17.647191">
        <ele>32.3416</ele>
        <time>2012-04-28T10:40:56Z</time>
      </trkpt>
      <trkpt lat="59.8922393" lon="17.6463067">
        <ele>30.8995</ele>
        <time>2012-04-28T10:41:04Z</time>
      </trkpt>
      <trkpt lat="59.8923318" lon="17.6454561">
        <ele>30.8995</ele>
        <time>2012-04-28T10:41:12Z</time>
      </trkpt>
      <trkpt lat="59.892432" lon="17.6444942">
        <ele>30.4188</ele>
        <time>2012-04-28T10:41:21Z</time>
      </trkpt>
      <trkpt lat="59.8925413" lon="17.6434288">
        <ele>30.4188</ele>
        <time>2012-04-28T10:41:32Z</time>
      </trkpt>
      <trkpt lat="59.8925992" lon="17.6430452">
        <ele>30.4188</ele>
        <time>2012-04-28T10:41:36Z</time>
      </trkpt>
      <trkpt lat="59.8927611" lon="17.6426599">
        <ele>30.4188</ele>
        <time>2012-04-28T10:41:41Z</time>
      </trkpt>
      <trkpt lat="59.8927941" lon="17.6425817">
        <ele>30.4188</ele>
        <time>2012-04-28T10:41:42Z</time>
      </trkpt>
      <trkpt lat="59.8930832" lon="17.6418983">
        <ele>30.4188</ele>
        <time>2012-04-28T10:41:51Z</time>
      </trkpt>
      <trkpt lat="59.893373" lon="17.6412198">
        <ele>30.4188</ele>
        <time>2012-04-28T10:42:00Z</time>
      </trkpt>
      <trkpt lat="59.8934321" lon="17.6410511">
        <ele>30.4188</ele>
        <time>2012-04-28T10:42:02Z</time>
      </trkpt>
      <trkpt lat="59.8935876" lon="17.6403966">
        <ele>31.3801</ele>
        <time>2012-04-28T10:42:09Z</time>
      </trkpt>
      <trkpt lat="59.8937339" lon="17.6398793">
        <ele>31.8607</ele>
        <time>2012-04-28T10:42:15Z</time>
      </trkpt>
      <trkpt lat="59.8939282" lon="17.6392327">
        <ele>32.3416</ele>
        <time>2012-04-28T10:42:23Z</time>
      </trkpt>
      <trkpt lat="59.8940208" lon="17.6390075">
        <ele>31.8607</ele>
        <time>2012-04-28T10:42:26Z</time>
      </trkpt>
      <trkpt lat="59.894333" lon="17.6384339">
        <ele>31.3801</ele>
        <time>2012-04-28T10:42:34Z</time>
      </trkpt>
      <trkpt lat="59.8946272" lon="17.6378967">
        <ele>30.4188</ele>
        <time>2012-04-28T10:42:41Z</time>
      </trkpt>
      <trkpt lat="59.8946995" lon="17.6377209">
        <ele>29.4575</ele>
        <time>2012-04-28T10:42:43Z</time>
      </trkpt>
      <trkpt lat="59.8947973" lon="17.6373364">
        <ele>28.0155</ele>
        <time>2012-04-28T10:42:47Z</time>
      </trkpt>
      <trkpt lat="59.8949668" lon="17.6368976">
        <ele>28.4962</ele>
        <time>2012-04-28T10:42:52Z</time>
      </trkpt>
      <trkpt lat="59.8950231" lon="17.6368458">
        <ele>28.4962</ele>
        <time>2012-04-28T10:42:53Z</time>
      </trkpt>
      <trkpt lat="59.8956901" lon="17.6364537">
        <ele>29.9381</ele>
        <time>2012-04-28T10:43:04Z</time>
      </trkpt>
      <trkpt lat="59.8960251" lon="17.6363807">
        <ele>29.9381</ele>
        <time>2012-04-28T10:43:09Z</time>
      </trkpt>
      <trkpt lat="59.8962938" lon="17.6364307">
        <ele>30.4188</ele>
        <time>2012-04-28T10:43:13Z</time>
      </trkpt>
      <trkpt lat="59.8968268" lon="17.636648">
        <ele>30.4188</ele>
        <time>2012-04-28T10:43:21Z</time>
      </trkpt>
      <trkpt lat="59.8971562" lon="17.6367825">
        <ele>29.9381</ele>
        <time>2012-04-28T10:43:26Z</time>
      </trkpt>
      <trkpt lat="59.897288" lon="17.6367871">
        <ele>29.4575</ele>
        <time>2012-04-28T10:43:28Z</time>
      </trkpt>
      <trkpt lat="59.8975562" lon="17.6369074">
        <ele>28.9769</ele>
        <time>2012-04-28T10:43:32Z</time>
      </trkpt>
      <trkpt lat="59.897828" lon="17.6370801">
        <ele>28.0155</ele>
        <time>2012-04-28T10:43:36Z</time>
      </trkpt>
      <trkpt lat="59.8985428" lon="17.6376565">
        <ele>27.5349</ele>
        <time>2012-04-28T10:43:45Z</time>
      </trkpt>
      <trkpt lat="59.8990584" lon="17.6381579">
        <ele>27.0543</ele>
        <time>2012-04-28T10:43:52Z</time>
      </trkpt>
      <trkpt lat="59.8995452" lon="17.6386229">
        <ele>25.1317</ele>
        <time>2012-04-28T10:43:58Z</time>
      </trkpt>
      <trkpt lat="59.90036" lon="17.6394519">
        <ele>23.6896</ele>
        <time>2012-04-28T10:44:07Z</time>
      </trkpt>
      <trkpt lat="59.9010508" lon="17.6401694">
        <ele>23.209</ele>
        <time>2012-04-28T10:44:15Z</time>
      </trkpt>
      <trkpt lat="59.901877" lon="17.6409534">
        <ele>22.7283</ele>
        <time>2012-04-28T10:44:25Z</time>
      </trkpt>
      <trkpt lat="59.902585" lon="17.6414737">
        <ele>22.2476</ele>
        <time>2012-04-28T10:44:33Z</time>
      </trkpt>
      <trkpt lat="59.9032911" lon="17.6418499">
        <ele>22.7283</ele>
        <time>2012-04-28T10:44:41Z</time>
      </trkpt>
      <trkpt lat="59.9035247" lon="17.6419819">
        <ele>22.7283</ele>
        <time>2012-04-28T10:44:44Z</time>
      </trkpt>
      <trkpt lat="59.9036661" lon="17.641999">
        <ele>22.7283</ele>
        <time>2012-04-28T10:44:46Z</time>
      </trkpt>
      <trkpt lat="59.9041964" lon="17.6422617">
        <ele>22.2476</ele>
        <time>2012-04-28T10:44:53Z</time>
      </trkpt>
      <trkpt lat="59.9048395" lon="17.6426646">
        <ele>22.2476</ele>
        <time>2012-04-28T10:45:01Z</time>
      </trkpt>
      <trkpt lat="59.9052956" lon="17.6428889">
        <ele>22.7283</ele>
        <time>2012-04-28T10:45:07Z</time>
      </trkpt>
      <trkpt lat="59.9053693" lon="17.6429195">
        <ele>23.209</ele>
        <time>2012-04-28T10:45:08Z</time>
      </trkpt>
      <trkpt lat="59.9056625" lon="17.6429692">
        <ele>22.7283</ele>
        <time>2012-04-28T10:45:12Z</time>
      </trkpt>
      <trkpt lat="59.9062235" lon="17.6432231">
        <ele>23.6896</ele>
        <time>2012-04-28T10:45:20Z</time>
      </trkpt>
      <trkpt lat="59.9068466" lon="17.6434184">
        <ele>24.651</ele>
        <time>2012-04-28T10:45:29Z</time>
      </trkpt>
      <trkpt lat="59.9073547" lon="17.6435528">
        <ele>25.6123</ele>
        <time>2012-04-28T10:45:36Z</time>
      </trkpt>
      <trkpt lat="59.9080045" lon="17.6436623">
        <ele>26.5736</ele>
        <time>2012-04-28T10:45:45Z</time>
      </trkpt>
      <trkpt lat="59.9086395" lon="17.6437016">
        <ele>26.5736</ele>
        <time>2012-04-28T10:45:54Z</time>
      </trkpt>
      <trkpt lat="59.9092675" lon="17.6436549">
        <ele>25.6123</ele>
        <time>2012-04-28T10:46:02Z</time>
      </trkpt>
      <trkpt lat="59.9097605" lon="17.6435495">
        <ele>25.6123</ele>
        <time>2012-04-28T10:46:08Z</time>
      </trkpt>
      <trkpt lat="59.9100066" lon="17.6435924">
        <ele>26.5736</ele>
        <time>2012-04-28T10:46:11Z</time>
      </trkpt>
      <trkpt lat="59.9103023" lon="17.6436162">
        <ele>28.0155</ele>
        <time>2012-04-28T10:46:15Z</time>
      </trkpt>
      <trkpt lat="59.910443" lon="17.6435779">
        <ele>28.0155</ele>
        <time>2012-04-28T10:46:17Z</time>
      </trkpt>
      <trkpt lat="59.9107204" lon="17.643452">
        <ele>28.0155</ele>
        <time>2012-04-28T10:46:21Z</time>
      </trkpt>
      <trkpt lat="59.9114817" lon="17.6433055">
        <ele>29.9381</ele>
        <time>2012-04-28T10:46:32Z</time>
      </trkpt>
      <trkpt lat="59.9121179" lon="17.6431624">
        <ele>29.9381</ele>
        <time>2012-04-28T10:46:41Z</time>
      </trkpt>
      <trkpt lat="59.9125101" lon="17.6430696">
        <ele>29.4575</ele>
        <time>2012-04-28T10:46:46Z</time>
      </trkpt>
      <trkpt lat="59.9128223" lon="17.6431407">
        <ele>30.8995</ele>
        <time>2012-04-28T10:46:50Z</time>
      </trkpt>
      <trkpt lat="59.9128933" lon="17.6431375">
        <ele>31.3801</ele>
        <time>2012-04-28T10:46:51Z</time>
      </trkpt>
      <trkpt lat="59.9135471" lon="17.6430029">
        <ele>30.8995</ele>
        <time>2012-04-28T10:47:00Z</time>
      </trkpt>
      <trkpt lat="59.9143146" lon="17.6428485">
        <ele>29.4575</ele>
        <time>2012-04-28T10:47:10Z</time>
      </trkpt>
      <trkpt lat="59.9150478" lon="17.6427193">
        <ele>27.0543</ele>
        <time>2012-04-28T10:47:19Z</time>
      </trkpt>
      <trkpt lat="59.9151302" lon="17.6426961">
        <ele>27.0543</ele>
        <time>2012-04-28T10:47:20Z</time>
      </trkpt>
      <trkpt lat="59.9152966" lon="17.6425734">
        <ele>26.0929</ele>
        <time>2012-04-28T10:47:22Z</time>
      </trkpt>
      <trkpt lat="59.9157741" lon="17.6424423">
        <ele>25.6123</ele>
        <time>2012-04-28T10:47:27Z</time>
      </trkpt>
      <trkpt lat="59.9163781" lon="17.6424239">
        <ele>27.0543</ele>
        <time>2012-04-28T10:47:34Z</time>
      </trkpt>
      <trkpt lat="59.9169686" lon="17.6423461">
        <ele>26.5736</ele>
        <time>2012-04-28T10:47:41Z</time>
      </trkpt>
      <trkpt lat="59.9171453" lon="17.6422912">
        <ele>26.0929</ele>
        <time>2012-04-28T10:47:43Z</time>
      </trkpt>
      <trkpt lat="59.9176124" lon="17.6422388">
        <ele>26.0929</ele>
        <time>2012-04-28T10:47:48Z</time>
      </trkpt>
      <trkpt lat="59.9182713" lon="17.6422234">
        <ele>27.5349</ele>
        <time>2012-04-28T10:47:55Z</time>
      </trkpt>
      <trkpt lat="59.9188665" lon="17.6421537">
        <ele>28.9769</ele>
        <time>2012-04-28T10:48:02Z</time>
      </trkpt>
      <trkpt lat="59.9197786" lon="17.6420398">
        <ele>29.4575</ele>
        <time>2012-04-28T10:48:13Z</time>
      </trkpt>
      <trkpt lat="59.9202797" lon="17.641956">
        <ele>29.9381</ele>
        <time>2012-04-28T10:48:19Z</time>
      </trkpt>
      <trkpt lat="59.9210149" lon="17.641941">
        <ele>29.4575</ele>
        <time>2012-04-28T10:48:28Z</time>
      </trkpt>
      <trkpt lat="59.9215866" lon="17.6418763">
        <ele>29.9381</ele>
        <time>2012-04-28T10:48:36Z</time>
      </trkpt>
      <trkpt lat="59.9221446" lon="17.6418049">
        <ele>28.9769</ele>
        <time>2012-04-28T10:48:44Z</time>
      </trkpt>
      <trkpt lat="59.9229615" lon="17.6417097">
        <ele>28.9769</ele>
        <time>2012-04-28T10:48:55Z</time>
      </trkpt>
      <trkpt lat="59.9236903" lon="17.6416139">
        <ele>27.5349</ele>
        <time>2012-04-28T10:49:04Z</time>
      </trkpt>
      <trkpt lat="59.9246472" lon="17.6415099">
        <ele>26.0929</ele>
        <time>2012-04-28T10:49:15Z</time>
      </trkpt>
      <trkpt lat="59.9251551" lon="17.6414347">
        <ele>26.5736</ele>
        <time>2012-04-28T10:49:21Z</time>
      </trkpt>
      <trkpt lat="59.9259398" lon="17.6413634">
        <ele>25.6123</ele>
        <time>2012-04-28T10:49:30Z</time>
      </trkpt>
      <trkpt lat="59.9268458" lon="17.6412421">
        <ele>25.6123</ele>
        <time>2012-04-28T10:49:40Z</time>
      </trkpt>
      <trkpt lat="59.9278352" lon="17.6411541">
        <ele>25.6123</ele>
        <time>2012-04-28T10:49:51Z</time>
      </trkpt>
      <trkpt lat="59.9286865" lon="17.6410469">
        <ele>26.0929</ele>
        <time>2012-04-28T10:50:01Z</time>
      </trkpt>
      <trkpt lat="59.929265" lon="17.640963">
        <ele>25.6123</ele>
        <time>2012-04-28T10:50:08Z</time>
      </trkpt>
      <trkpt lat="59.9298312" lon="17.6408724">
        <ele>26.0929</ele>
        <time>2012-04-28T10:50:15Z</time>
      </trkpt>
      <trkpt lat="59.9303172" lon="17.64088">
        <ele>25.6123</ele>
        <time>2012-04-28T10:50:21Z</time>
      </trkpt>
      <trkpt lat="59.9307787" lon="17.6408448">
        <ele>26.5736</ele>
        <time>2012-04-28T10:50:27Z</time>
      </trkpt>
      <trkpt lat="59.9308537" lon="17.6408485">
        <ele>26.5736</ele>
        <time>2012-04-28T10:50:28Z</time>
      </trkpt>
      <trkpt lat="59.9311569" lon="17.6409971">
        <ele>27.0543</ele>
        <time>2012-04-28T10:50:32Z</time>
      </trkpt>
      <trkpt lat="59.9316139" lon="17.641338">
        <ele>28.0155</ele>
        <time>2012-04-28T10:50:39Z</time>
      </trkpt>
      <trkpt lat="59.9321234" lon="17.641712">
        <ele>28.4962</ele>
        <time>2012-04-28T10:50:47Z</time>
      </trkpt>
      <trkpt lat="59.9325232" lon="17.6420974">
        <ele>28.0155</ele>
        <time>2012-04-28T10:50:53Z</time>
      </trkpt>
      <trkpt lat="59.9327191" lon="17.6423226">
        <ele>28.0155</ele>
        <time>2012-04-28T10:50:56Z</time>
      </trkpt>
      <trkpt lat="59.9328819" lon="17.6426116">
        <ele>28.4962</ele>
        <time>2012-04-28T10:50:59Z</time>
      </trkpt>
      <trkpt lat="59.9333178" lon="17.6432521">
        <ele>30.4188</ele>
        <time>2012-04-28T10:51:07Z</time>
      </trkpt>
      <trkpt lat="59.9334391" lon="17.6434451">
        <ele>31.8607</ele>
        <time>2012-04-28T10:51:10Z</time>
      </trkpt>
      <trkpt lat="59.9338014" lon="17.6438598">
        <ele>33.3029</ele>
        <time>2012-04-28T10:51:19Z</time>
      </trkpt>
      <trkpt lat="59.9341106" lon="17.6442071">
        <ele>33.7834</ele>
        <time>2012-04-28T10:51:26Z</time>
      </trkpt>
      <trkpt lat="59.9343495" lon="17.6445191">
        <ele>34.2642</ele>
        <time>2012-04-28T10:51:31Z</time>
      </trkpt>
      <trkpt lat="59.934618" lon="17.6449434">
        <ele>35.7061</ele>
        <time>2012-04-28T10:51:38Z</time>
      </trkpt>
      <trkpt lat="59.9348332" lon="17.64522">
        <ele>35.2255</ele>
        <time>2012-04-28T10:51:43Z</time>
      </trkpt>
      <trkpt lat="59.9351889" lon="17.645608">
        <ele>34.7449</ele>
        <time>2012-04-28T10:51:50Z</time>
      </trkpt>
      <trkpt lat="59.9355745" lon="17.6460627">
        <ele>35.2255</ele>
        <time>2012-04-28T10:51:57Z</time>
      </trkpt>
      <trkpt lat="59.9359525" lon="17.6465309">
        <ele>35.7061</ele>
        <time>2012-04-28T10:52:04Z</time>
      </trkpt>
      <trkpt lat="59.9364116" lon="17.6471325">
        <ele>35.2255</ele>
        <time>2012-04-28T10:52:12Z</time>
      </trkpt>
      <trkpt lat="59.9368949" lon="17.6477655">
        <ele>35.7061</ele>
        <time>2012-04-28T10:52:20Z</time>
      </trkpt>
      <trkpt lat="59.937269" lon="17.6482194">
        <ele>35.2255</ele>
        <time>2012-04-28T10:52:26Z</time>
      </trkpt>
      <trkpt lat="59.9375336" lon="17.6486954">
        <ele>35.7061</ele>
        <time>2012-04-28T10:52:31Z</time>
      </trkpt>
      <trkpt lat="59.9376842" lon="17.6491645">
        <ele>35.2255</ele>
        <time>2012-04-28T10:52:35Z</time>
      </trkpt>
      <trkpt lat="59.9378656" lon="17.6496938">
        <ele>35.2255</ele>
        <time>2012-04-28T10:52:39Z</time>
      </trkpt>
      <trkpt lat="59.9382676" lon="17.6507641">
        <ele>34.2642</ele>
        <time>2012-04-28T10:52:47Z</time>
      </trkpt>
      <trkpt lat="59.9384426" lon="17.6511573">
        <ele>34.2642</ele>
        <time>2012-04-28T10:52:50Z</time>
      </trkpt>
      <trkpt lat="59.9388032" lon="17.6523031">
        <ele>34.7449</ele>
        <time>2012-04-28T10:52:58Z</time>
      </trkpt>
      <trkpt lat="59.9390686" lon="17.6533284">
        <ele>35.2255</ele>
        <time>2012-04-28T10:53:05Z</time>
      </trkpt>
      <trkpt lat="59.9393333" lon="17.6545348">
        <ele>36.1868</ele>
        <time>2012-04-28T10:53:13Z</time>
      </trkpt>
      <trkpt lat="59.9396839" lon="17.6562711">
        <ele>36.1868</ele>
        <time>2012-04-28T10:53:24Z</time>
      </trkpt>
      <trkpt lat="59.9399996" lon="17.6577914">
        <ele>34.7449</ele>
        <time>2012-04-28T10:53:33Z</time>
      </trkpt>
      <trkpt lat="59.9403024" lon="17.6592374">
        <ele>34.2642</ele>
        <time>2012-04-28T10:53:41Z</time>
      </trkpt>
      <trkpt lat="59.9404262" lon="17.659896">
        <ele>34.7449</ele>
        <time>2012-04-28T10:53:45Z</time>
      </trkpt>
      <trkpt lat="59.9405083" lon="17.6601909">
        <ele>34.2642</ele>
        <time>2012-04-28T10:53:47Z</time>
      </trkpt>
      <trkpt lat="59.9405199" lon="17.6606603">
        <ele>32.8223</ele>
        <time>2012-04-28T10:53:50Z</time>
      </trkpt>
      <trkpt lat="59.9404105" lon="17.6611369">
        <ele>31.3801</ele>
        <time>2012-04-28T10:53:53Z</time>
      </trkpt>
      <trkpt lat="59.940432" lon="17.661779">
        <ele>30.4188</ele>
        <time>2012-04-28T10:53:57Z</time>
      </trkpt>
      <trkpt lat="59.940577" lon="17.6620947">
        <ele>30.4188</ele>
        <time>2012-04-28T10:54:00Z</time>
      </trkpt>
      <trkpt lat="59.940781" lon="17.6621931">
        <ele>30.4188</ele>
        <time>2012-04-28T10:54:03Z</time>
      </trkpt>
      <trkpt lat="59.941202" lon="17.6623651">
        <ele>30.8995</ele>
        <time>2012-04-28T10:54:09Z</time>
      </trkpt>
      <trkpt lat="59.9415425" lon="17.662735">
        <ele>31.3801</ele>
        <time>2012-04-28T10:54:14Z</time>
      </trkpt>
      <trkpt lat="59.9419098" lon="17.6633686">
        <ele>31.8607</ele>
        <time>2012-04-28T10:54:20Z</time>
      </trkpt>
      <trkpt lat="59.9423946" lon="17.6640741">
        <ele>31.3801</ele>
        <time>2012-04-28T10:54:27Z</time>
      </trkpt>
      <trkpt lat="59.9429619" lon="17.6647136">
        <ele>30.8995</ele>
        <time>2012-04-28T10:54:34Z</time>
      </trkpt>
      <trkpt lat="59.9436115" lon="17.6652493">
        <ele>29.9381</ele>
        <time>2012-04-28T10:54:41Z</time>
      </trkpt>
      <trkpt lat="59.9442165" lon="17.6655729">
        <ele>28.9769</ele>
        <time>2012-04-28T10:54:47Z</time>
      </trkpt>
      <trkpt lat="59.9452163" lon="17.665977">
        <ele>28.4962</ele>
        <time>2012-04-28T10:54:57Z</time>
      </trkpt>
      <trkpt lat="59.9461636" lon="17.6663417">
        <ele>28.0155</ele>
        <time>2012-04-28T10:55:07Z</time>
      </trkpt>
      <trkpt lat="59.9463407" lon="17.6664556">
        <ele>27.5349</ele>
        <time>2012-04-28T10:55:09Z</time>
      </trkpt>
      <trkpt lat="59.946791" lon="17.6665895">
        <ele>27.5349</ele>
        <time>2012-04-28T10:55:14Z</time>
      </trkpt>
      <trkpt lat="59.9473281" lon="17.6668192">
        <ele>27.5349</ele>
        <time>2012-04-28T10:55:20Z</time>
      </trkpt>
      <trkpt lat="59.9482061" lon="17.6672384">
        <ele>27.0543</ele>
        <time>2012-04-28T10:55:30Z</time>
      </trkpt>
      <trkpt lat="59.9488965" lon="17.6676621">
        <ele>27.0543</ele>
        <time>2012-04-28T10:55:38Z</time>
      </trkpt>
      <trkpt lat="59.9495025" lon="17.6680039">
        <ele>26.5736</ele>
        <time>2012-04-28T10:55:45Z</time>
      </trkpt>
      <trkpt lat="59.9502247" lon="17.6683029">
        <ele>26.0929</ele>
        <time>2012-04-28T10:55:53Z</time>
      </trkpt>
      <trkpt lat="59.9507666" lon="17.6683028">
        <ele>25.6123</ele>
        <time>2012-04-28T10:55:59Z</time>
      </trkpt>
      <trkpt lat="59.9513462" lon="17.6681195">
        <ele>24.651</ele>
        <time>2012-04-28T10:56:06Z</time>
      </trkpt>
      <trkpt lat="59.9514257" lon="17.6680985">
        <ele>24.651</ele>
        <time>2012-04-28T10:56:07Z</time>
      </trkpt>
      <trkpt lat="59.9517136" lon="17.6683246">
        <ele>23.6896</ele>
        <time>2012-04-28T10:56:11Z</time>
      </trkpt>
      <trkpt lat="59.9518074" lon="17.6687962">
        <ele>24.1703</ele>
        <time>2012-04-28T10:56:14Z</time>
      </trkpt>
      <trkpt lat="59.951809" lon="17.669291">
        <ele>24.651</ele>
        <time>2012-04-28T10:56:17Z</time>
      </trkpt>
      <trkpt lat="59.9517234" lon="17.6707734">
        <ele>25.6123</ele>
        <time>2012-04-28T10:56:26Z</time>
      </trkpt>
      <trkpt lat="59.9517769" lon="17.6713891">
        <ele>27.0543</ele>
        <time>2012-04-28T10:56:30Z</time>
      </trkpt>
      <trkpt lat="59.9518042" lon="17.6719254">
        <ele>28.4962</ele>
        <time>2012-04-28T10:56:34Z</time>
      </trkpt>
      <trkpt lat="59.9518928" lon="17.6728406">
        <ele>29.9381</ele>
        <time>2012-04-28T10:56:41Z</time>
      </trkpt>
      <trkpt lat="59.9520791" lon="17.6739965">
        <ele>31.8607</ele>
        <time>2012-04-28T10:56:50Z</time>
      </trkpt>
      <trkpt lat="59.9522517" lon="17.6748569">
        <ele>33.7834</ele>
        <time>2012-04-28T10:56:57Z</time>
      </trkpt>
      <trkpt lat="59.952288" lon="17.6750639">
        <ele>34.2642</ele>
        <time>2012-04-28T10:56:59Z</time>
      </trkpt>
      <trkpt lat="59.9525182" lon="17.675753">
        <ele>33.3029</ele>
        <time>2012-04-28T10:57:06Z</time>
      </trkpt>
      <trkpt lat="59.9527968" lon="17.6764942">
        <ele>32.3416</ele>
        <time>2012-04-28T10:57:12Z</time>
      </trkpt>
      <trkpt lat="59.9531538" lon="17.6774071">
        <ele>30.8995</ele>
        <time>2012-04-28T10:57:19Z</time>
      </trkpt>
      <trkpt lat="59.9535581" lon="17.6785933">
        <ele>29.9381</ele>
        <time>2012-04-28T10:57:27Z</time>
      </trkpt>
      <trkpt lat="59.9539759" lon="17.6798666">
        <ele>29.4575</ele>
        <time>2012-04-28T10:57:35Z</time>
      </trkpt>
      <trkpt lat="59.9543459" lon="17.6809513">
        <ele>29.9381</ele>
        <time>2012-04-28T10:57:42Z</time>
      </trkpt>
      <trkpt lat="59.9545958" lon="17.6817235">
        <ele>30.4188</ele>
        <time>2012-04-28T10:57:47Z</time>
      </trkpt>
      <trkpt lat="59.954852" lon="17.6822023">
        <ele>30.4188</ele>
        <time>2012-04-28T10:57:51Z</time>
      </trkpt>
      <trkpt lat="59.9549501" lon="17.6824867">
        <ele>30.4188</ele>
        <time>2012-04-28T10:57:53Z</time>
      </trkpt>
      <trkpt lat="59.9552868" lon="17.6837693">
        <ele>31.8607</ele>
        <time>2012-04-28T10:58:01Z</time>
      </trkpt>
      <trkpt lat="59.9555438" lon="17.6851897">
        <ele>32.8223</ele>
        <time>2012-04-28T10:58:09Z</time>
      </trkpt>
      <trkpt lat="59.9557954" lon="17.686928">
        <ele>33.7834</ele>
        <time>2012-04-28T10:58:18Z</time>
      </trkpt>
      <trkpt lat="59.9560406" lon="17.6884774">
        <ele>34.2642</ele>
        <time>2012-04-28T10:58:26Z</time>
      </trkpt>
      <trkpt lat="59.9562048" lon="17.6891468">
        <ele>34.7449</ele>
        <time>2012-04-28T10:58:30Z</time>
      </trkpt>
      <trkpt lat="59.9564259" lon="17.6900811">
        <ele>35.2255</ele>
        <time>2012-04-28T10:58:36Z</time>
      </trkpt>
      <trkpt lat="59.9566921" lon="17.690894">
        <ele>33.7834</ele>
        <time>2012-04-28T10:58:42Z</time>
      </trkpt>
      <trkpt lat="59.9570699" lon="17.6920324">
        <ele>31.3801</ele>
        <time>2012-04-28T10:58:50Z</time>
      </trkpt>
      <trkpt lat="59.9575297" lon="17.6933886">
        <ele>31.3801</ele>
        <time>2012-04-28T10:59:00Z</time>
      </trkpt>
      <trkpt lat="59.9579198" lon="17.6945134">
        <ele>32.3416</ele>
        <time>2012-04-28T10:59:09Z</time>
      </trkpt>
      <trkpt lat="59.9583011" lon="17.6955554">
        <ele>33.3029</ele>
        <time>2012-04-28T10:59:18Z</time>
      </trkpt>
      <trkpt lat="59.9586331" lon="17.6963843">
        <ele>34.2642</ele>
        <time>2012-04-28T10:59:25Z</time>
      </trkpt>
      <trkpt lat="59.9588574" lon="17.6971656">
        <ele>35.2255</ele>
        <time>2012-04-28T10:59:31Z</time>
      </trkpt>
      <trkpt lat="59.9589827" lon="17.6979347">
        <ele>37.1481</ele>
        <time>2012-04-28T10:59:37Z</time>
      </trkpt>
      <trkpt lat="59.9590254" lon="17.6985947">
        <ele>38.5901</ele>
        <time>2012-04-28T10:59:43Z</time>
      </trkpt>
      <trkpt lat="59.9590643" lon="17.6995442">
        <ele>38.5901</ele>
        <time>2012-04-28T10:59:51Z</time>
      </trkpt>
      <trkpt lat="59.9591617" lon="17.7006123">
        <ele>38.5901</ele>
        <time>2012-04-28T10:59:59Z</time>
      </trkpt>
      <trkpt lat="59.9593118" lon="17.7017291">
        <ele>39.0707</ele>
        <time>2012-04-28T11:00:08Z</time>
      </trkpt>
      <trkpt lat="59.9595385" lon="17.7025636">
        <ele>37.1481</ele>
        <time>2012-04-28T11:00:15Z</time>
      </trkpt>
      <trkpt lat="59.959795" lon="17.703411">
        <ele>35.7061</ele>
        <time>2012-04-28T11:00:22Z</time>
      </trkpt>
      <trkpt lat="59.9600146" lon="17.7040719">
        <ele>34.7449</ele>
        <time>2012-04-28T11:00:27Z</time>
      </trkpt>
      <trkpt lat="59.9603011" lon="17.704557">
        <ele>34.2642</ele>
        <time>2012-04-28T11:00:32Z</time>
      </trkpt>
      <trkpt lat="59.960964" lon="17.7054102">
        <ele>33.3029</ele>
        <time>2012-04-28T11:00:42Z</time>
      </trkpt>
      <trkpt lat="59.961375" lon="17.7061178">
        <ele>33.3029</ele>
        <time>2012-04-28T11:00:49Z</time>
      </trkpt>
      <trkpt lat="59.9617459" lon="17.7066646">
        <ele>33.3029</ele>
        <time>2012-04-28T11:00:55Z</time>
      </trkpt>
      <trkpt lat="59.9621086" lon="17.7069341">
        <ele>33.7834</ele>
        <time>2012-04-28T11:01:00Z</time>
      </trkpt>
      <trkpt lat="59.9626446" lon="17.707157">
        <ele>34.2642</ele>
        <time>2012-04-28T11:01:07Z</time>
      </trkpt>
      <trkpt lat="59.9631926" lon="17.707181">
        <ele>32.8223</ele>
        <time>2012-04-28T11:01:14Z</time>
      </trkpt>
      <trkpt lat="59.9638328" lon="17.7072138">
        <ele>31.8607</ele>
        <time>2012-04-28T11:01:22Z</time>
      </trkpt>
      <trkpt lat="59.9645515" lon="17.7074041">
        <ele>31.3801</ele>
        <time>2012-04-28T11:01:31Z</time>
      </trkpt>
      <trkpt lat="59.9650197" lon="17.707749">
        <ele>29.4575</ele>
        <time>2012-04-28T11:01:37Z</time>
      </trkpt>
      <trkpt lat="59.9655656" lon="17.7082676">
        <ele>27.0543</ele>
        <time>2012-04-28T11:01:44Z</time>
      </trkpt>
      <trkpt lat="59.9658242" lon="17.7087659">
        <ele>26.0929</ele>
        <time>2012-04-28T11:01:48Z</time>
      </trkpt>
      <trkpt lat="59.9662075" lon="17.7100106">
        <ele>26.5736</ele>
        <time>2012-04-28T11:01:56Z</time>
      </trkpt>
      <trkpt lat="59.9666472" lon="17.7115205">
        <ele>27.5349</ele>
        <time>2012-04-28T11:02:06Z</time>
      </trkpt>
      <trkpt lat="59.9670213" lon="17.7125799">
        <ele>27.5349</ele>
        <time>2012-04-28T11:02:14Z</time>
      </trkpt>
      <trkpt lat="59.9672109" lon="17.7133119">
        <ele>26.5736</ele>
        <time>2012-04-28T11:02:19Z</time>
      </trkpt>
      <trkpt lat="59.9673674" lon="17.7143777">
        <ele>23.6896</ele>
        <time>2012-04-28T11:02:25Z</time>
      </trkpt>
      <trkpt lat="59.9675343" lon="17.7155497">
        <ele>21.767</ele>
        <time>2012-04-28T11:02:31Z</time>
      </trkpt>
      <trkpt lat="59.9677274" lon="17.7162241">
        <ele>22.7283</ele>
        <time>2012-04-28T11:02:35Z</time>
      </trkpt>
      <trkpt lat="59.9678998" lon="17.7165821">
        <ele>24.651</ele>
        <time>2012-04-28T11:02:38Z</time>
      </trkpt>
      <trkpt lat="59.9682527" lon="17.7170296">
        <ele>26.5736</ele>
        <time>2012-04-28T11:02:44Z</time>
      </trkpt>
      <trkpt lat="59.9686146" lon="17.7172592">
        <ele>28.0155</ele>
        <time>2012-04-28T11:02:50Z</time>
      </trkpt>
      <trkpt lat="59.9691294" lon="17.717456">
        <ele>28.0155</ele>
        <time>2012-04-28T11:02:58Z</time>
      </trkpt>
      <trkpt lat="59.9696238" lon="17.7177211">
        <ele>27.5349</ele>
        <time>2012-04-28T11:03:05Z</time>
      </trkpt>
      <trkpt lat="59.9701434" lon="17.718161">
        <ele>27.0543</ele>
        <time>2012-04-28T11:03:12Z</time>
      </trkpt>
      <trkpt lat="59.9709898" lon="17.7189373">
        <ele>26.5736</ele>
        <time>2012-04-28T11:03:23Z</time>
      </trkpt>
      <trkpt lat="59.9717263" lon="17.7196046">
        <ele>26.5736</ele>
        <time>2012-04-28T11:03:32Z</time>
      </trkpt>
      <trkpt lat="59.9724405" lon="17.7202483">
        <ele>26.5736</ele>
        <time>2012-04-28T11:03:41Z</time>
      </trkpt>
      <trkpt lat="59.9730324" lon="17.7208997">
        <ele>26.5736</ele>
        <time>2012-04-28T11:03:49Z</time>
      </trkpt>
      <trkpt lat="59.9734198" lon="17.7215636">
        <ele>26.0929</ele>
        <time>2012-04-28T11:03:55Z</time>
      </trkpt>
      <trkpt lat="59.9737466" lon="17.7224065">
        <ele>26.5736</ele>
        <time>2012-04-28T11:04:01Z</time>
      </trkpt>
      <trkpt lat="59.973988" lon="17.723369">
        <ele>26.5736</ele>
        <time>2012-04-28T11:04:07Z</time>
      </trkpt>
      <trkpt lat="59.9741971" lon="17.7247248">
        <ele>27.5349</ele>
        <time>2012-04-28T11:04:15Z</time>
      </trkpt>
      <trkpt lat="59.9743422" lon="17.7260373">
        <ele>28.0155</ele>
        <time>2012-04-28T11:04:23Z</time>
      </trkpt>
      <trkpt lat="59.9743817" lon="17.7271902">
        <ele>27.5349</ele>
        <time>2012-04-28T11:04:30Z</time>
      </trkpt>
      <trkpt lat="59.9744124" lon="17.7285538">
        <ele>26.0929</ele>
        <time>2012-04-28T11:04:38Z</time>
      </trkpt>
      <trkpt lat="59.9744116" lon="17.7298913">
        <ele>26.5736</ele>
        <time>2012-04-28T11:04:46Z</time>
      </trkpt>
      <trkpt lat="59.9743154" lon="17.731051">
        <ele>27.5349</ele>
        <time>2012-04-28T11:04:53Z</time>
      </trkpt>
      <trkpt lat="59.9743025" lon="17.7322637">
        <ele>27.5349</ele>
        <time>2012-04-28T11:05:00Z</time>
      </trkpt>
      <trkpt lat="59.9742937" lon="17.7335459">
        <ele>26.5736</ele>
        <time>2012-04-28T11:05:07Z</time>
      </trkpt>
      <trkpt lat="59.9742714" lon="17.7349961">
        <ele>27.0543</ele>
        <time>2012-04-28T11:05:15Z</time>
      </trkpt>
      <trkpt lat="59.9743709" lon="17.7358583">
        <ele>28.0155</ele>
        <time>2012-04-28T11:05:20Z</time>
      </trkpt>
      <trkpt lat="59.9745973" lon="17.7367907">
        <ele>28.0155</ele>
        <time>2012-04-28T11:05:26Z</time>
      </trkpt>
      <trkpt lat="59.9749214" lon="17.7376024">
        <ele>28.4962</ele>
        <time>2012-04-28T11:05:32Z</time>
      </trkpt>
      <trkpt lat="59.9754828" lon="17.7385849">
        <ele>28.9769</ele>
        <time>2012-04-28T11:05:41Z</time>
      </trkpt>
      <trkpt lat="59.9758703" lon="17.739236">
        <ele>29.4575</ele>
        <time>2012-04-28T11:05:48Z</time>
      </trkpt>
      <trkpt lat="59.9761578" lon="17.7396833">
        <ele>30.8995</ele>
        <time>2012-04-28T11:05:54Z</time>
      </trkpt>
      <trkpt lat="59.9763676" lon="17.7397381">
        <ele>31.3801</ele>
        <time>2012-04-28T11:05:59Z</time>
      </trkpt>
      <trkpt lat="59.9764517" lon="17.7396689">
        <ele>31.3801</ele>
        <time>2012-04-28T11:06:01Z</time>
      </trkpt>
      <trkpt lat="59.9766267" lon="17.7394917">
        <ele>30.8995</ele>
        <time>2012-04-28T11:06:05Z</time>
      </trkpt>
      <trkpt lat="59.9769945" lon="17.7393211">
        <ele>31.8607</ele>
        <time>2012-04-28T11:06:13Z</time>
      </trkpt>
      <trkpt lat="59.9773577" lon="17.7391221">
        <ele>33.7834</ele>
        <time>2012-04-28T11:06:21Z</time>
      </trkpt>
      <trkpt lat="59.977611" lon="17.7390379">
        <ele>35.7061</ele>
        <time>2012-04-28T11:06:27Z</time>
      </trkpt>
      <trkpt lat="59.9776499" lon="17.7390369">
        <ele>35.7061</ele>
        <time>2012-04-28T11:06:28Z</time>
      </trkpt>
      <trkpt lat="59.9779171" lon="17.7391393">
        <ele>36.6675</ele>
        <time>2012-04-28T11:06:35Z</time>
      </trkpt>
      <trkpt lat="59.978042" lon="17.7392113">
        <ele>36.6675</ele>
        <time>2012-04-28T11:06:38Z</time>
      </trkpt>
      <trkpt lat="59.97846" lon="17.7393189">
        <ele>37.1481</ele>
        <time>2012-04-28T11:06:46Z</time>
      </trkpt>
      <trkpt lat="59.9786981" lon="17.739341">
        <ele>35.7061</ele>
        <time>2012-04-28T11:06:50Z</time>
      </trkpt>
    </trkseg>
  </trk>
</gpx>